Observation data for Palo Duro Canyon State Park Floor on 01/20/2019      Previous  Date  Next       Current Mesonet Observations  Soil Data  Daily Summary Page  Observations in Plain Language
KPD2 200600Z 12001KT M03/M06 A3029 RMK A01 T10251061  RH  077%=      5-min Rain = 0
KPD2 200601Z 12000KT M03/M06 A3029 RMK A01 T10271063  RH  077%=      5-min Rain = 0
KPD2 200602Z 00000KT M03/M07 A3029 RMK A01 T10291065  RH  076%=      5-min Rain = 0
KPD2 200603Z 11000KT M03/M07 A3029 RMK A01 T10311065  RH  077%=      5-min Rain = 0
KPD2 200604Z 11000KT M03/M07 A3028 RMK A01 T10321065  RH  078%=      5-min Rain = 0
KPD2 200605Z 00000KT M03/M07 A3028 RMK A01 T10321065  RH  078%=      5-min Rain = 0
KPD2 200606Z 11001KT M03/M06 A3028 RMK A01 T10331064  RH  079%=      5-min Rain = 0
KPD2 200607Z 11001KT M03/M06 A3028 RMK A01 T10331063  RH  080%=      5-min Rain = 0
KPD2 200608Z 11001KT M03/M06 A3028 RMK A01 T10331062  RH  081%=      5-min Rain = 0
KPD2 200609Z 11000KT M03/M06 A3028 RMK A01 T10331061  RH  081%=      5-min Rain = 0
KPD2 200610Z 00000KT M03/M06 A3029 RMK A01 T10341061  RH  081%=      5-min Rain = 0
KPD2 200611Z 00000KT M03/M06 A3029 RMK A01 T10341062  RH  081%=      5-min Rain = 0
KPD2 200612Z 11001KT M03/M06 A3029 RMK A01 T10341062  RH  081%=      5-min Rain = 0
KPD2 200613Z 11001KT M04/M06 A3029 RMK A01 T10351062  RH  081%=      5-min Rain = 0
KPD2 200614Z 12001KT M04/M06 A3029 RMK A01 T10351062  RH  081%=      5-min Rain = 0
KPD2 200615Z 00000KT M04/M06 A3029 RMK A01 T10351062  RH  082%=      5-min Rain = 0
KPD2 200616Z 00000KT M04/M06 A3028 RMK A01 T10351061  RH  082%=      5-min Rain = 0
KPD2 200617Z 00000KT M04/M06 A3028 RMK A01 T10351061  RH  082%=      5-min Rain = 0
KPD2 200618Z 19000KT M04/M06 A3028 RMK A01 T10351062  RH  082%=      5-min Rain = 0
KPD2 200619Z 19001KT M04/M06 A3029 RMK A01 T10361062  RH  082%=      5-min Rain = 0
KPD2 200620Z 19001KT M04/M06 A3029 RMK A01 T10361063  RH  082%=      5-min Rain = 0
KPD2 200621Z 19001KT M04/M06 A3029 RMK A01 T10371063  RH  082%=      5-min Rain = 0
KPD2 200622Z 19001KT M04/M06 A3029 RMK A01 T10381064  RH  082%=      5-min Rain = 0
KPD2 200623Z 19000KT M04/M07 A3028 RMK A01 T10381065  RH  082%=      5-min Rain = 0
KPD2 200624Z 00000KT M04/M06 A3028 RMK A01 T10391064  RH  082%=      5-min Rain = 0
KPD2 200625Z 00000KT M04/M06 A3028 RMK A01 T10381062  RH  083%=      5-min Rain = 0
KPD2 200626Z 19001KT M04/M06 A3028 RMK A01 T10371061  RH  084%=      5-min Rain = 0
KPD2 200627Z 20002KT M04/M06 A3028 RMK A01 T10361060  RH  084%=      5-min Rain = 0
KPD2 200628Z 20002KT M04/M06 A3028 RMK A01 T10361061  RH  083%=      5-min Rain = 0
KPD2 200629Z 20000KT M04/M06 A3028 RMK A01 T10371064  RH  082%=      5-min Rain = 0
KPD2 200630Z 12001KT M04/M07 A3028 RMK A01 T10381065  RH  082%=      5-min Rain = 0
KPD2 200631Z 11001KT M04/M07 A3028 RMK A01 T10391065  RH  082%=      5-min Rain = 0
KPD2 200632Z 12001KT M04/M06 A3028 RMK A01 T10381063  RH  083%=      5-min Rain = 0
KPD2 200633Z 12000KT M04/M06 A3028 RMK A01 T10371061  RH  083%=      5-min Rain = 0
KPD2 200634Z 00000KT M04/M06 A3028 RMK A01 T10361060  RH  084%=      5-min Rain = 0
KPD2 200635Z 00000KT M04/M06 A3028 RMK A01 T10371062  RH  083%=      5-min Rain = 0
KPD2 200636Z 09000KT M04/M06 A3028 RMK A01 T10381064  RH  082%=      5-min Rain = 0
KPD2 200637Z 09000KT M04/M07 A3029 RMK A01 T10391065  RH  082%=      5-min Rain = 0
KPD2 200638Z 09000KT M04/M07 A3029 RMK A01 T10401066  RH  082%=      5-min Rain = 0
KPD2 200639Z 10001KT M04/M07 A3029 RMK A01 T10401067  RH  082%=      5-min Rain = 0
KPD2 200640Z 11000KT M04/M07 A3029 RMK A01 T10421068  RH  082%=      5-min Rain = 0
KPD2 200641Z 11000KT M04/M07 A3029 RMK A01 T10421067  RH  082%=      5-min Rain = 0
KPD2 200642Z 11000KT M04/M07 A3029 RMK A01 T10421066  RH  083%=      5-min Rain = 0
KPD2 200643Z 11000KT M04/M07 A3029 RMK A01 T10411065  RH  084%=      5-min Rain = 0
KPD2 200644Z 11001KT M04/M06 A3029 RMK A01 T10411064  RH  084%=      5-min Rain = 0
KPD2 200645Z 11000KT M04/M07 A3029 RMK A01 T10411065  RH  084%=      5-min Rain = 0
KPD2 200646Z 10001KT M04/M06 A3029 RMK A01 T10411064  RH  084%=      5-min Rain = 0
KPD2 200647Z 09003KT M04/M06 A3029 RMK A01 T10391061  RH  085%=      5-min Rain = 0
KPD2 200648Z 09001KT M04/M06 A3029 RMK A01 T10381060  RH  084%=      5-min Rain = 0
KPD2 200649Z 00000KT M04/M06 A3029 RMK A01 T10371060  RH  084%=      5-min Rain = 0
KPD2 200650Z 00000KT M04/M06 A3029 RMK A01 T10371063  RH  083%=      5-min Rain = 0
KPD2 200651Z 00000KT M04/M06 A3029 RMK A01 T10381063  RH  082%=      5-min Rain = 0
KPD2 200652Z 09001KT M04/M06 A3029 RMK A01 T10381063  RH  083%=      5-min Rain = 0
KPD2 200653Z 09001KT M04/M06 A3029 RMK A01 T10381063  RH  083%=      5-min Rain = 0
KPD2 200654Z 09000KT M04/M06 A3029 RMK A01 T10381062  RH  083%=      5-min Rain = 0
KPD2 200655Z 00000KT M04/M06 A3029 RMK A01 T10381063  RH  083%=      5-min Rain = 0
KPD2 200656Z 00000KT M04/M07 A3029 RMK A01 T10401065  RH  082%=      5-min Rain = 0
KPD2 200657Z 10001KT M04/M07 A3029 RMK A01 T10401066  RH  082%=      5-min Rain = 0
KPD2 200658Z 10002KT M04/M07 A3029 RMK A01 T10401065  RH  083%=      5-min Rain = 0
KPD2 200659Z 10002KT M04/M06 A3029 RMK A01 T10391062  RH  084%=      5-min Rain = 0
KPD2 200700Z 09001KT M04/M06 A3029 RMK A01 T10381061  RH  084%=      5-min Rain = 0
KPD2 200701Z 10000KT M04/M06 A3029 RMK A01 T10381061  RH  084%=      5-min Rain = 0
KPD2 200702Z 09002KT M04/M06 A3029 RMK A01 T10381061  RH  084%=      5-min Rain = 0
KPD2 200703Z 10003KT M04/M06 A3029 RMK A01 T10361059  RH  084%=      5-min Rain = 0
KPD2 200704Z 10003KT M03/M06 A3029 RMK A01 T10341057  RH  084%=      5-min Rain = 0
KPD2 200705Z 12002KT M03/M06 A3029 RMK A01 T10341058  RH  083%=      5-min Rain = 0
KPD2 200706Z 17000KT M03/M06 A3029 RMK A01 T10341060  RH  083%=      5-min Rain = 0
KPD2 200707Z 18000KT M04/M06 A3029 RMK A01 T10351062  RH  082%=      5-min Rain = 0
KPD2 200708Z 00000KT M04/M06 A3029 RMK A01 T10361064  RH  081%=      5-min Rain = 0
KPD2 200709Z 00000KT M04/M07 A3029 RMK A01 T10381066  RH  081%=      5-min Rain = 0
KPD2 200710Z 00000KT M04/M07 A3029 RMK A01 T10391067  RH  081%=      5-min Rain = 0
KPD2 200711Z 18000KT M04/M07 A3029 RMK A01 T10401068  RH  081%=      5-min Rain = 0
KPD2 200712Z 00000KT M04/M07 A3029 RMK A01 T10411069  RH  081%=      5-min Rain = 0
KPD2 200713Z 00000KT M04/M07 A3029 RMK A01 T10431070  RH  081%=      5-min Rain = 0
KPD2 200714Z 18000KT M04/M07 A3029 RMK A01 T10441071  RH  081%=      5-min Rain = 0
KPD2 200715Z 18000KT M05/M07 A3029 RMK A01 T10451071  RH  082%=      5-min Rain = 0
KPD2 200716Z 18001KT M05/M07 A3029 RMK A01 T10461071  RH  083%=      5-min Rain = 0
KPD2 200717Z 18000KT M05/M07 A3029 RMK A01 T10471071  RH  083%=      5-min Rain = 0
KPD2 200718Z 18000KT M05/M07 A3029 RMK A01 T10471071  RH  084%=      5-min Rain = 0
KPD2 200719Z 18001KT M05/M07 A3029 RMK A01 T10481071  RH  084%=      5-min Rain = 0
KPD2 200720Z 18001KT M05/M07 A3029 RMK A01 T10481071  RH  084%=      5-min Rain = 0
KPD2 200721Z 18001KT M05/M07 A3029 RMK A01 T10481070  RH  085%=      5-min Rain = 0
KPD2 200722Z 18001KT M05/M07 A3029 RMK A01 T10481068  RH  086%=      5-min Rain = 0
KPD2 200723Z 18001KT M05/M07 A3029 RMK A01 T10461065  RH  086%=      5-min Rain = 0
KPD2 200724Z 18001KT M05/M06 A3029 RMK A01 T10451064  RH  087%=      5-min Rain = 0
KPD2 200725Z 18001KT M04/M06 A3029 RMK A01 T10441063  RH  087%=      5-min Rain = 0
KPD2 200726Z 18001KT M04/M06 A3029 RMK A01 T10441063  RH  087%=      5-min Rain = 0
KPD2 200727Z 18001KT M04/M06 A3029 RMK A01 T10441064  RH  086%=      5-min Rain = 0
KPD2 200728Z 18000KT M04/M06 A3029 RMK A01 T10441064  RH  086%=      5-min Rain = 0
KPD2 200729Z 18000KT M05/M07 A3029 RMK A01 T10451066  RH  085%=      5-min Rain = 0
KPD2 200730Z 18001KT M05/M07 A3029 RMK A01 T10451067  RH  085%=      5-min Rain = 0
KPD2 200731Z 15000KT M05/M07 A3029 RMK A01 T10451066  RH  085%=      5-min Rain = 0
KPD2 200732Z 15001KT M04/M06 A3029 RMK A01 T10441063  RH  086%=      5-min Rain = 0
KPD2 200733Z 27001KT M04/M06 A3029 RMK A01 T10421062  RH  086%=      5-min Rain = 0
KPD2 200734Z 28002KT M04/M06 A3029 RMK A01 T10421063  RH  086%=      5-min Rain = 0
KPD2 200735Z 36000KT M04/M07 A3029 RMK A01 T10431065  RH  085%=      5-min Rain = 0
KPD2 200736Z 04002KT M04/M06 A3029 RMK A01 T10431064  RH  085%=      5-min Rain = 0
KPD2 200737Z 04001KT M04/M06 A3029 RMK A01 T10431063  RH  086%=      5-min Rain = 0
KPD2 200738Z 00000KT M04/M06 A3029 RMK A01 T10421062  RH  086%=      5-min Rain = 0
KPD2 200739Z 34001KT M04/M06 A3029 RMK A01 T10421064  RH  085%=      5-min Rain = 0
KPD2 200740Z 31002KT M04/M07 A3029 RMK A01 T10441067  RH  084%=      5-min Rain = 0
KPD2 200741Z 31001KT M05/M07 A3029 RMK A01 T10451068  RH  084%=      5-min Rain = 0
KPD2 200742Z 00000KT M05/M07 A3029 RMK A01 T10461069  RH  084%=      5-min Rain = 0
KPD2 200743Z 31000KT M05/M07 A3029 RMK A01 T10461067  RH  085%=      5-min Rain = 0
KPD2 200744Z 31002KT M05/M07 A3029 RMK A01 T10451066  RH  085%=      5-min Rain = 0
KPD2 200745Z 31002KT M05/M07 A3029 RMK A01 T10451066  RH  085%=      5-min Rain = 0
KPD2 200746Z 31002KT M05/M07 A3029 RMK A01 T10461068  RH  085%=      5-min Rain = 0
KPD2 200747Z 31001KT M05/M07 A303 RMK A01 T10471069  RH  085%=      5-min Rain = 0
KPD2 200748Z 31001KT M05/M07 A303 RMK A01 T10471068  RH  085%=      5-min Rain = 0
KPD2 200749Z 31001KT M05/M07 A303 RMK A01 T10481069  RH  085%=      5-min Rain = 0
KPD2 200750Z 31001KT M05/M07 A303 RMK A01 T10481070  RH  085%=      5-min Rain = 0
KPD2 200751Z 31000KT M05/M07 A3029 RMK A01 T10491071  RH  085%=      5-min Rain = 0
KPD2 200752Z 00000KT M05/M07 A3029 RMK A01 T10491071  RH  085%=      5-min Rain = 0
KPD2 200753Z 00000KT M05/M07 A3029 RMK A01 T10501071  RH  085%=      5-min Rain = 0
KPD2 200754Z 00000KT M05/M07 A3029 RMK A01 T10501071  RH  085%=      5-min Rain = 0
KPD2 200755Z 00000KT M05/M07 A3029 RMK A01 T10501071  RH  086%=      5-min Rain = 0
KPD2 200756Z 00000KT M05/M07 A3029 RMK A01 T10501071  RH  086%=      5-min Rain = 0
KPD2 200757Z 00000KT M05/M07 A3029 RMK A01 T10511071  RH  086%=      5-min Rain = 0
KPD2 200758Z 32000KT M05/M07 A3029 RMK A01 T10511071  RH  086%=      5-min Rain = 0
KPD2 200759Z 00000KT M05/M07 A3029 RMK A01 T10511071  RH  086%=      5-min Rain = 0
KPD2 200800Z 00000KT M05/M07 A3029 RMK A01 T10511070  RH  086%=      5-min Rain = 0
KPD2 200801Z 00000KT M05/M07 A3029 RMK A01 T10501068  RH  087%=      5-min Rain = 0
KPD2 200802Z 32000KT M05/M07 A3029 RMK A01 T10491067  RH  087%=      5-min Rain = 0
KPD2 200803Z 32001KT M05/M07 A3029 RMK A01 T10491068  RH  087%=      5-min Rain = 0
KPD2 200804Z 30000KT M05/M07 A3029 RMK A01 T10491068  RH  087%=      5-min Rain = 0
KPD2 200805Z 29000KT M05/M07 A3029 RMK A01 T10491067  RH  087%=      5-min Rain = 0
KPD2 200806Z 28000KT M05/M07 A3029 RMK A01 T10481067  RH  087%=      5-min Rain = 0
KPD2 200807Z 28001KT M05/M07 A3028 RMK A01 T10481066  RH  087%=      5-min Rain = 0
KPD2 200808Z 28001KT M05/M07 A3028 RMK A01 T10481066  RH  087%=      5-min Rain = 0
KPD2 200809Z 28000KT M05/M07 A3028 RMK A01 T10471066  RH  087%=      5-min Rain = 0
KPD2 200810Z 29000KT M05/M07 A3028 RMK A01 T10481067  RH  087%=      5-min Rain = 0
KPD2 200811Z 00000KT M05/M07 A3028 RMK A01 T10481067  RH  087%=      5-min Rain = 0
KPD2 200812Z 00000KT M05/M07 A3028 RMK A01 T10481067  RH  087%=      5-min Rain = 0
KPD2 200813Z 00000KT M05/M07 A3029 RMK A01 T10481067  RH  087%=      5-min Rain = 0
KPD2 200814Z 00000KT M05/M07 A3028 RMK A01 T10471066  RH  087%=      5-min Rain = 0
KPD2 200815Z 00000KT M05/M07 A3028 RMK A01 T10471065  RH  087%=      5-min Rain = 0
KPD2 200816Z 29000KT M05/M07 A3028 RMK A01 T10471066  RH  087%=      5-min Rain = 0
KPD2 200817Z 35001KT M05/M07 A3028 RMK A01 T10471067  RH  086%=      5-min Rain = 0
KPD2 200818Z 07001KT M05/M07 A3028 RMK A01 T10481068  RH  086%=      5-min Rain = 0
KPD2 200819Z 07001KT M05/M07 A3028 RMK A01 T10481068  RH  086%=      5-min Rain = 0
KPD2 200820Z 07001KT M05/M07 A3028 RMK A01 T10471066  RH  086%=      5-min Rain = 0
KPD2 200821Z 07001KT M05/M07 A3028 RMK A01 T10471067  RH  086%=      5-min Rain = 0
KPD2 200822Z 07000KT M05/M07 A3028 RMK A01 T10471066  RH  086%=      5-min Rain = 0
KPD2 200823Z 00000KT M05/M07 A3028 RMK A01 T10471066  RH  087%=      5-min Rain = 0
KPD2 200824Z 00000KT M05/M07 A3028 RMK A01 T10471066  RH  087%=      5-min Rain = 0
KPD2 200825Z 00000KT M05/M07 A3028 RMK A01 T10471066  RH  087%=      5-min Rain = 0
KPD2 200826Z 07000KT M05/M07 A3028 RMK A01 T10471066  RH  087%=      5-min Rain = 0
KPD2 200827Z 07000KT M05/M07 A3028 RMK A01 T10471065  RH  087%=      5-min Rain = 0
KPD2 200828Z 00000KT M05/M07 A3029 RMK A01 T10471066  RH  087%=      5-min Rain = 0
KPD2 200829Z 00000KT M05/M07 A3029 RMK A01 T10471066  RH  087%=      5-min Rain = 0
KPD2 200830Z 00000KT M05/M07 A3029 RMK A01 T10471065  RH  087%=      5-min Rain = 0
KPD2 200831Z 06000KT M05/M07 A3029 RMK A01 T10471066  RH  087%=      5-min Rain = 0
KPD2 200832Z 05000KT M05/M07 A3029 RMK A01 T10481066  RH  087%=      5-min Rain = 0
KPD2 200833Z 04000KT M05/M07 A3029 RMK A01 T10481067  RH  087%=      5-min Rain = 0
KPD2 200834Z 00000KT M05/M07 A3029 RMK A01 T10481067  RH  087%=      5-min Rain = 0
KPD2 200835Z 00000KT M05/M07 A3029 RMK A01 T10481067  RH  087%=      5-min Rain = 0
KPD2 200836Z 00000KT M05/M07 A3029 RMK A01 T10491067  RH  087%=      5-min Rain = 0
KPD2 200837Z 00000KT M05/M07 A3029 RMK A01 T10491066  RH  088%=      5-min Rain = 0
KPD2 200838Z 00000KT M05/M07 A3029 RMK A01 T10481066  RH  088%=      5-min Rain = 0
KPD2 200839Z 00000KT M05/M07 A3029 RMK A01 T10481065  RH  088%=      5-min Rain = 0
KPD2 200840Z 00000KT M05/M07 A3029 RMK A01 T10481065  RH  088%=      5-min Rain = 0
KPD2 200841Z 00000KT M05/M07 A3029 RMK A01 T10481065  RH  088%=      5-min Rain = 0
KPD2 200842Z 00000KT M05/M06 A3029 RMK A01 T10481064  RH  088%=      5-min Rain = 0
KPD2 200843Z 00000KT M05/M06 A3029 RMK A01 T10481064  RH  088%=      5-min Rain = 0
KPD2 200844Z 00000KT M05/M06 A3029 RMK A01 T10481064  RH  088%=      5-min Rain = 0
KPD2 200845Z 04000KT M05/M07 A3029 RMK A01 T10481065  RH  088%=      5-min Rain = 0
KPD2 200846Z 04001KT M05/M07 A3029 RMK A01 T10481065  RH  088%=      5-min Rain = 0
KPD2 200847Z 04001KT M05/M07 A3029 RMK A01 T10481066  RH  087%=      5-min Rain = 0
KPD2 200848Z 04000KT M05/M07 A3029 RMK A01 T10491067  RH  087%=      5-min Rain = 0
KPD2 200849Z 04000KT M05/M07 A3029 RMK A01 T10501068  RH  087%=      5-min Rain = 0
KPD2 200850Z 00000KT M05/M07 A3029 RMK A01 T10501068  RH  087%=      5-min Rain = 0
KPD2 200851Z 00000KT M05/M07 A3029 RMK A01 T10501068  RH  087%=      5-min Rain = 0
KPD2 200852Z 04000KT M05/M07 A3029 RMK A01 T10501068  RH  087%=      5-min Rain = 0
KPD2 200853Z 04000KT M05/M07 A3029 RMK A01 T10511068  RH  088%=      5-min Rain = 0
KPD2 200854Z 04001KT M05/M07 A3029 RMK A01 T10511068  RH  088%=      5-min Rain = 0
KPD2 200855Z 04001KT M05/M07 A3029 RMK A01 T10501067  RH  088%=      5-min Rain = 0
KPD2 200856Z 04000KT M05/M07 A3029 RMK A01 T10501067  RH  088%=      5-min Rain = 0
KPD2 200857Z 04000KT M05/M07 A3029 RMK A01 T10501067  RH  088%=      5-min Rain = 0
KPD2 200858Z 04001KT M05/M07 A3029 RMK A01 T10511069  RH  087%=      5-min Rain = 0
KPD2 200859Z 04001KT M05/M07 A3029 RMK A01 T10531071  RH  087%=      5-min Rain = 0
KPD2 200900Z 04001KT M05/M07 A3029 RMK A01 T10531072  RH  087%=      5-min Rain = 0
KPD2 200901Z 04001KT M05/M07 A3029 RMK A01 T10541071  RH  087%=      5-min Rain = 0
KPD2 200902Z 04001KT M05/M07 A3029 RMK A01 T10541071  RH  088%=      5-min Rain = 0
KPD2 200903Z 04001KT M05/M07 A3029 RMK A01 T10521068  RH  089%=      5-min Rain = 0
KPD2 200904Z 04001KT M05/M07 A3029 RMK A01 T10511066  RH  089%=      5-min Rain = 0
KPD2 200905Z 04001KT M05/M06 A3029 RMK A01 T10491064  RH  090%=      5-min Rain = 0
KPD2 200906Z 04001KT M05/M06 A3029 RMK A01 T10471062  RH  090%=      5-min Rain = 0
KPD2 200907Z 02002KT M05/M06 A3029 RMK A01 T10461060  RH  090%=      5-min Rain = 0
KPD2 200908Z 03002KT M04/M06 A3029 RMK A01 T10441059  RH  089%=      5-min Rain = 0
KPD2 200909Z 04002KT M04/M06 A3029 RMK A01 T10431058  RH  089%=      5-min Rain = 0
KPD2 200910Z 04002KT M04/M06 A3029 RMK A01 T10411056  RH  089%=      5-min Rain = 0
KPD2 200911Z 04001KT M04/M06 A3029 RMK A01 T10391056  RH  088%=      5-min Rain = 0
KPD2 200912Z 04001KT M04/M06 A3029 RMK A01 T10381056  RH  087%=      5-min Rain = 0
KPD2 200913Z 04001KT M04/M06 A3029 RMK A01 T10381057  RH  087%=      5-min Rain = 0
KPD2 200914Z 00000KT M04/M06 A3029 RMK A01 T10381057  RH  087%=      5-min Rain = 0
KPD2 200915Z 00000KT M04/M06 A3029 RMK A01 T10381058  RH  086%=      5-min Rain = 0
KPD2 200916Z 00000KT M04/M06 A3029 RMK A01 T10381058  RH  086%=      5-min Rain = 0
KPD2 200917Z 00000KT M04/M06 A3029 RMK A01 T10381058  RH  086%=      5-min Rain = 0
KPD2 200918Z 04000KT M04/M06 A3029 RMK A01 T10391059  RH  086%=      5-min Rain = 0
KPD2 200919Z 04000KT M04/M06 A3029 RMK A01 T10391059  RH  086%=      5-min Rain = 0
KPD2 200920Z 04001KT M04/M06 A3029 RMK A01 T10401061  RH  085%=      5-min Rain = 0
KPD2 200921Z 04001KT M04/M07 A3029 RMK A01 T10431067  RH  084%=      5-min Rain = 0
KPD2 200922Z 00000KT M05/M07 A3029 RMK A01 T10461071  RH  083%=      5-min Rain = 0
KPD2 200923Z 00000KT M05/M07 A3029 RMK A01 T10481073  RH  083%=      5-min Rain = 0
KPD2 200924Z 00000KT M05/M07 A3029 RMK A01 T10491073  RH  083%=      5-min Rain = 0
KPD2 200925Z 00000KT M05/M07 A3029 RMK A01 T10501074  RH  084%=      5-min Rain = 0
KPD2 200926Z 00000KT M05/M07 A3029 RMK A01 T10511074  RH  084%=      5-min Rain = 0
KPD2 200927Z 00000KT M05/M07 A3029 RMK A01 T10521074  RH  085%=      5-min Rain = 0
KPD2 200928Z 04000KT M05/M07 A3029 RMK A01 T10521072  RH  086%=      5-min Rain = 0
KPD2 200929Z 13002KT M05/M07 A3029 RMK A01 T10521072  RH  086%=      5-min Rain = 0
KPD2 200930Z 13002KT M05/M07 A3029 RMK A01 T10521072  RH  086%=      5-min Rain = 0
KPD2 200931Z 13001KT M05/M07 A3029 RMK A01 T10531072  RH  086%=      5-min Rain = 0
KPD2 200932Z 13001KT M05/M07 A3029 RMK A01 T10531072  RH  086%=      5-min Rain = 0
KPD2 200933Z 13001KT M05/M07 A3029 RMK A01 T10541074  RH  086%=      5-min Rain = 0
KPD2 200934Z 13001KT M06/M07 A3029 RMK A01 T10551074  RH  086%=      5-min Rain = 0
KPD2 200935Z 13000KT M06/M07 A3029 RMK A01 T10551074  RH  086%=      5-min Rain = 0
KPD2 200936Z 00000KT M06/M07 A3029 RMK A01 T10551074  RH  087%=      5-min Rain = 0
KPD2 200937Z 13000KT M06/M07 A3029 RMK A01 T10551073  RH  087%=      5-min Rain = 0
KPD2 200938Z 13000KT M05/M07 A3029 RMK A01 T10541071  RH  088%=      5-min Rain = 0
KPD2 200939Z 14001KT M05/M07 A3029 RMK A01 T10531070  RH  088%=      5-min Rain = 0
KPD2 200940Z 25002KT M05/M07 A3029 RMK A01 T10541071  RH  088%=      5-min Rain = 0
KPD2 200941Z 25001KT M05/M07 A3029 RMK A01 T10541073  RH  087%=      5-min Rain = 0
KPD2 200942Z 25000KT M06/M07 A3029 RMK A01 T10561074  RH  087%=      5-min Rain = 0
KPD2 200943Z 00000KT M06/M07 A303 RMK A01 T10561074  RH  087%=      5-min Rain = 0
KPD2 200944Z 25000KT M06/M07 A303 RMK A01 T10561074  RH  088%=      5-min Rain = 0
KPD2 200945Z 25000KT M06/M07 A3029 RMK A01 T10561073  RH  088%=      5-min Rain = 0
KPD2 200946Z 25000KT M06/M07 A3029 RMK A01 T10551071  RH  088%=      5-min Rain = 0
KPD2 200947Z 25001KT M05/M07 A3029 RMK A01 T10541070  RH  089%=      5-min Rain = 0
KPD2 200948Z 25001KT M05/M07 A3029 RMK A01 T10531069  RH  089%=      5-min Rain = 0
KPD2 200949Z 25001KT M05/M07 A3029 RMK A01 T10531069  RH  089%=      5-min Rain = 0
KPD2 200950Z 25000KT M05/M07 A3029 RMK A01 T10531069  RH  089%=      5-min Rain = 0
KPD2 200951Z 00000KT M05/M07 A3029 RMK A01 T10541070  RH  088%=      5-min Rain = 0
KPD2 200952Z 25000KT M05/M07 A3029 RMK A01 T10541070  RH  088%=      5-min Rain = 0
KPD2 200953Z 21001KT M05/M07 A3029 RMK A01 T10541070  RH  089%=      5-min Rain = 0
KPD2 200954Z 21002KT M05/M07 A3029 RMK A01 T10531068  RH  089%=      5-min Rain = 0
KPD2 200955Z 21001KT M05/M07 A3029 RMK A01 T10531068  RH  089%=      5-min Rain = 0
KPD2 200956Z 21000KT M05/M07 A3028 RMK A01 T10531068  RH  089%=      5-min Rain = 0
KPD2 200957Z 00000KT M05/M07 A3028 RMK A01 T10531069  RH  089%=      5-min Rain = 0
KPD2 200958Z 00000KT M05/M07 A3028 RMK A01 T10531069  RH  089%=      5-min Rain = 0
KPD2 200959Z 00000KT M05/M07 A3028 RMK A01 T10531069  RH  089%=      5-min Rain = 0
KPD2 201000Z 00000KT M05/M07 A3028 RMK A01 T10531069  RH  089%=      5-min Rain = 0
KPD2 201001Z 00000KT M05/M07 A3028 RMK A01 T10531068  RH  089%=      5-min Rain = 0
KPD2 201002Z 00000KT M05/M07 A3029 RMK A01 T10521067  RH  089%=      5-min Rain = 0
KPD2 201003Z 00000KT M05/M07 A3029 RMK A01 T10521068  RH  089%=      5-min Rain = 0
KPD2 201004Z 21000KT M05/M07 A3029 RMK A01 T10521068  RH  089%=      5-min Rain = 0
KPD2 201005Z 00000KT M05/M07 A3028 RMK A01 T10531069  RH  088%=      5-min Rain = 0
KPD2 201006Z 00000KT M05/M07 A3028 RMK A01 T10521069  RH  088%=      5-min Rain = 0
KPD2 201007Z 00000KT M05/M07 A3028 RMK A01 T10531069  RH  088%=      5-min Rain = 0
KPD2 201008Z 22001KT M05/M07 A3028 RMK A01 T10531069  RH  088%=      5-min Rain = 0
KPD2 201009Z 00000KT M05/M07 A3028 RMK A01 T10541071  RH  088%=      5-min Rain = 0
KPD2 201010Z 27000KT M06/M07 A3028 RMK A01 T10561073  RH  088%=      5-min Rain = 0
KPD2 201011Z 00000KT M06/M07 A3028 RMK A01 T10561073  RH  088%=      5-min Rain = 0
KPD2 201012Z 00000KT M06/M07 A3028 RMK A01 T10561073  RH  088%=      5-min Rain = 0
KPD2 201013Z 00000KT M06/M07 A3028 RMK A01 T10571073  RH  088%=      5-min Rain = 0
KPD2 201014Z 00000KT M06/M07 A3028 RMK A01 T10561072  RH  089%=      5-min Rain = 0
KPD2 201015Z 00000KT M06/M07 A3028 RMK A01 T10561072  RH  089%=      5-min Rain = 0
KPD2 201016Z 00000KT M06/M07 A3028 RMK A01 T10561071  RH  089%=      5-min Rain = 0
KPD2 201017Z 00000KT M06/M07 A3028 RMK A01 T10551070  RH  089%=      5-min Rain = 0
KPD2 201018Z 00000KT M05/M07 A3028 RMK A01 T10541069  RH  090%=      5-min Rain = 0
KPD2 201019Z 26000KT M05/M07 A3028 RMK A01 T10541069  RH  090%=      5-min Rain = 0
KPD2 201020Z 26001KT M05/M07 A3028 RMK A01 T10541068  RH  090%=      5-min Rain = 0
KPD2 201021Z 26000KT M05/M07 A3028 RMK A01 T10541069  RH  089%=      5-min Rain = 0
KPD2 201022Z 00000KT M06/M07 A3028 RMK A01 T10551070  RH  089%=      5-min Rain = 0
KPD2 201023Z 00000KT M06/M07 A3028 RMK A01 T10551070  RH  089%=      5-min Rain = 0
KPD2 201024Z 27000KT M06/M07 A3028 RMK A01 T10551070  RH  089%=      5-min Rain = 0
KPD2 201025Z 27000KT M05/M07 A3028 RMK A01 T10541069  RH  090%=      5-min Rain = 0
KPD2 201026Z 27000KT M05/M07 A3028 RMK A01 T10531067  RH  090%=      5-min Rain = 0
KPD2 201027Z 27000KT M05/M07 A3028 RMK A01 T10531066  RH  090%=      5-min Rain = 0
KPD2 201028Z 26001KT M05/M07 A3027 RMK A01 T10531067  RH  090%=      5-min Rain = 0
KPD2 201029Z 26001KT M05/M07 A3027 RMK A01 T10541070  RH  089%=      5-min Rain = 0
KPD2 201030Z 27000KT M06/M07 A3027 RMK A01 T10551071  RH  089%=      5-min Rain = 0
KPD2 201031Z 27000KT M05/M07 A3027 RMK A01 T10541069  RH  089%=      5-min Rain = 0
KPD2 201032Z 27001KT M05/M07 A3027 RMK A01 T10511065  RH  090%=      5-min Rain = 0
KPD2 201033Z 15000KT M05/M06 A3027 RMK A01 T10491062  RH  090%=      5-min Rain = 0
KPD2 201034Z 00000KT M05/M06 A3027 RMK A01 T10491063  RH  090%=      5-min Rain = 0
KPD2 201035Z 00000KT M05/M06 A3027 RMK A01 T10481064  RH  089%=      5-min Rain = 0
KPD2 201036Z 00000KT M05/M06 A3027 RMK A01 T10491064  RH  089%=      5-min Rain = 0
KPD2 201037Z 00000KT M05/M07 A3027 RMK A01 T10491065  RH  088%=      5-min Rain = 0
KPD2 201038Z 00000KT M05/M07 A3027 RMK A01 T10491065  RH  088%=      5-min Rain = 0
KPD2 201039Z 00000KT M05/M07 A3027 RMK A01 T10491065  RH  088%=      5-min Rain = 0
KPD2 201040Z 00000KT M05/M07 A3027 RMK A01 T10501067  RH  088%=      5-min Rain = 0
KPD2 201041Z 00000KT M05/M07 A3027 RMK A01 T10511069  RH  087%=      5-min Rain = 0
KPD2 201042Z 00000KT M05/M07 A3027 RMK A01 T10521070  RH  087%=      5-min Rain = 0
KPD2 201043Z 12000KT M05/M07 A3027 RMK A01 T10541072  RH  087%=      5-min Rain = 0
KPD2 201044Z 11002KT M06/M07 A3027 RMK A01 T10551074  RH  087%=      5-min Rain = 0
KPD2 201045Z 13002KT M06/M07 A3027 RMK A01 T10561074  RH  087%=      5-min Rain = 0
KPD2 201046Z 13000KT M06/M07 A3027 RMK A01 T10561073  RH  088%=      5-min Rain = 0
KPD2 201047Z 14001KT M06/M07 A3027 RMK A01 T10561073  RH  088%=      5-min Rain = 0
KPD2 201048Z 21002KT M06/M07 A3027 RMK A01 T10561073  RH  088%=      5-min Rain = 0
KPD2 201049Z 21000KT M06/M07 A3026 RMK A01 T10571074  RH  088%=      5-min Rain = 0
KPD2 201050Z 13001KT M06/M07 A3026 RMK A01 T10571074  RH  088%=      5-min Rain = 0
KPD2 201051Z 13000KT M06/M07 A3026 RMK A01 T10571074  RH  088%=      5-min Rain = 0
KPD2 201052Z 13000KT M06/M08 A3026 RMK A01 T10581075  RH  088%=      5-min Rain = 0
KPD2 201053Z 00000KT M06/M08 A3026 RMK A01 T10581075  RH  088%=      5-min Rain = 0
KPD2 201054Z 09001KT M06/M08 A3026 RMK A01 T10581075  RH  088%=      5-min Rain = 0
KPD2 201055Z 10002KT M06/M08 A3027 RMK A01 T10591075  RH  088%=      5-min Rain = 0
KPD2 201056Z 11003KT M06/M07 A3027 RMK A01 T10581074  RH  089%=      5-min Rain = 0
KPD2 201057Z 12004KT M06/M07 A3027 RMK A01 T10581074  RH  089%=      5-min Rain = 0
KPD2 201058Z 12003KT M06/M07 A3027 RMK A01 T10591074  RH  089%=      5-min Rain = 0
KPD2 201059Z 14003KT M06/M07 A3026 RMK A01 T10571072  RH  090%=      5-min Rain = 0
KPD2 201100Z 21003KT M06/M07 A3026 RMK A01 T10561070  RH  090%=      5-min Rain = 0
KPD2 201101Z 22001KT M06/M07 A3026 RMK A01 T10561072  RH  089%=      5-min Rain = 0
KPD2 201102Z 08001KT M06/M07 A3026 RMK A01 T10571074  RH  088%=      5-min Rain = 0
KPD2 201103Z 10001KT M06/M07 A3026 RMK A01 T10571074  RH  088%=      5-min Rain = 0
KPD2 201104Z 24003KT M06/M07 A3026 RMK A01 T10561072  RH  089%=      5-min Rain = 0
KPD2 201105Z 21002KT M06/M07 A3026 RMK A01 T10561072  RH  089%=      5-min Rain = 0
KPD2 201106Z 20000KT M06/M07 A3026 RMK A01 T10561072  RH  089%=      5-min Rain = 0
KPD2 201107Z 09002KT M06/M07 A3026 RMK A01 T10561072  RH  088%=      5-min Rain = 0
KPD2 201108Z 10003KT M06/M07 A3026 RMK A01 T10561072  RH  089%=      5-min Rain = 0
KPD2 201109Z 12006KT M06/M07 A3026 RMK A01 T10561071  RH  089%=      5-min Rain = 0
KPD2 201110Z 12006KT M05/M07 A3026 RMK A01 T10521066  RH  090%=      5-min Rain = 0
KPD2 201111Z 14005KT M05/M06 A3026 RMK A01 T10451057  RH  091%=      5-min Rain = 0
KPD2 201112Z 12004KT M04/M06 A3026 RMK A01 T10421055  RH  090%=      5-min Rain = 0
KPD2 201113Z 11003KT M04/M06 A3025 RMK A01 T10411058  RH  088%=      5-min Rain = 0
KPD2 201114Z 14002KT M04/M06 A3025 RMK A01 T10411060  RH  087%=      5-min Rain = 0
KPD2 201115Z 11004KT M04/M06 A3025 RMK A01 T10421062  RH  086%=      5-min Rain = 0
KPD2 201116Z 20001KT M04/M07 A3025 RMK A01 T10431065  RH  085%=      5-min Rain = 0
KPD2 201117Z 26002KT M05/M07 A3025 RMK A01 T10461069  RH  084%=      5-min Rain = 0
KPD2 201118Z 22001KT M05/M07 A3025 RMK A01 T10481071  RH  084%=      5-min Rain = 0
KPD2 201119Z 25002KT M05/M07 A3025 RMK A01 T10491072  RH  084%=      5-min Rain = 0
KPD2 201120Z 28000KT M05/M07 A3025 RMK A01 T10501072  RH  085%=      5-min Rain = 0
KPD2 201121Z 00000KT M05/M07 A3026 RMK A01 T10511073  RH  085%=      5-min Rain = 0
KPD2 201122Z 13003KT M05/M07 A3026 RMK A01 T10511071  RH  086%=      5-min Rain = 0
KPD2 201123Z 12003KT M05/M06 A3026 RMK A01 T10471064  RH  088%=      5-min Rain = 0
KPD2 201124Z 14003KT M05/M06 A3026 RMK A01 T10451062  RH  088%=      5-min Rain = 0
KPD2 201125Z 13004KT M05/M06 A3026 RMK A01 T10451064  RH  087%=      5-min Rain = 0
KPD2 201126Z 12003KT M05/M06 A3026 RMK A01 T10451064  RH  086%=      5-min Rain = 0
KPD2 201127Z 13002KT M05/M07 A3025 RMK A01 T10461066  RH  086%=      5-min Rain = 0
KPD2 201128Z 25002KT M05/M07 A3025 RMK A01 T10471068  RH  085%=      5-min Rain = 0
KPD2 201129Z 27003KT M05/M07 A3025 RMK A01 T10481070  RH  085%=      5-min Rain = 0
KPD2 201130Z 29000KT M05/M07 A3025 RMK A01 T10501072  RH  085%=      5-min Rain = 0
KPD2 201131Z 07000KT M05/M07 A3025 RMK A01 T10511073  RH  085%=      5-min Rain = 0
KPD2 201132Z 08002KT M05/M07 A3025 RMK A01 T10511071  RH  086%=      5-min Rain = 0
KPD2 201133Z 23002KT M05/M07 A3025 RMK A01 T10521071  RH  086%=      5-min Rain = 0
KPD2 201134Z 25002KT M05/M07 A3025 RMK A01 T10521071  RH  086%=      5-min Rain = 0
KPD2 201135Z 16000KT M05/M07 A3025 RMK A01 T10521070  RH  087%=      5-min Rain = 0
KPD2 201136Z 12001KT M05/M07 A3025 RMK A01 T10521070  RH  087%=      5-min Rain = 0
KPD2 201137Z 09001KT M05/M07 A3025 RMK A01 T10521069  RH  088%=      5-min Rain = 0
KPD2 201138Z 09000KT M05/M07 A3025 RMK A01 T10511068  RH  088%=      5-min Rain = 0
KPD2 201139Z 10001KT M05/M07 A3025 RMK A01 T10501066  RH  088%=      5-min Rain = 0
KPD2 201140Z 13001KT M05/M07 A3025 RMK A01 T10491066  RH  088%=      5-min Rain = 0
KPD2 201141Z 11003KT M05/M07 A3025 RMK A01 T10501067  RH  087%=      5-min Rain = 0
KPD2 201142Z 10002KT M05/M07 A3024 RMK A01 T10501068  RH  087%=      5-min Rain = 0
KPD2 201143Z 12002KT M05/M07 A3024 RMK A01 T10501068  RH  087%=      5-min Rain = 0
KPD2 201144Z 25004KT M05/M07 A3025 RMK A01 T10491068  RH  087%=      5-min Rain = 0
KPD2 201145Z 27003KT M05/M07 A3025 RMK A01 T10501068  RH  087%=      5-min Rain = 0
KPD2 201146Z 29001KT M05/M07 A3025 RMK A01 T10521070  RH  087%=      5-min Rain = 0
KPD2 201147Z 06002KT M05/M07 A3025 RMK A01 T10511069  RH  087%=      5-min Rain = 0
KPD2 201148Z 09003KT M05/M06 A3025 RMK A01 T10481064  RH  088%=      5-min Rain = 0
KPD2 201149Z 11002KT M05/M06 A3025 RMK A01 T10451061  RH  089%=      5-min Rain = 0
KPD2 201150Z 10002KT M04/M06 A3025 RMK A01 T10411056  RH  089%=      5-min Rain = 0
KPD2 201151Z 18003KT M04/M06 A3025 RMK A01 T10391055  RH  088%=      5-min Rain = 0
KPD2 201152Z 15003KT M04/M06 A3024 RMK A01 T10381058  RH  086%=      5-min Rain = 0
KPD2 201153Z 14003KT M04/M06 A3024 RMK A01 T10391061  RH  085%=      5-min Rain = 0
KPD2 201154Z 17003KT M04/M06 A3024 RMK A01 T10391060  RH  085%=      5-min Rain = 0
KPD2 201155Z 14002KT M04/M06 A3024 RMK A01 T10391061  RH  084%=      5-min Rain = 0
KPD2 201156Z 12003KT M04/M06 A3024 RMK A01 T10381061  RH  084%=      5-min Rain = 0
KPD2 201157Z 10002KT M04/M06 A3024 RMK A01 T10381061  RH  085%=      5-min Rain = 0
KPD2 201158Z 09003KT M04/M06 A3024 RMK A01 T10381059  RH  085%=      5-min Rain = 0
KPD2 201159Z 12003KT M04/M06 A3024 RMK A01 T10371059  RH  085%=      5-min Rain = 0
KPD2 201200Z 13002KT M04/M06 A3024 RMK A01 T10371060  RH  084%=      5-min Rain = 0
KPD2 201201Z 15000KT M04/M06 A3024 RMK A01 T10371061  RH  084%=      5-min Rain = 0
KPD2 201202Z 06001KT M04/M06 A3024 RMK A01 T10381062  RH  084%=      5-min Rain = 0
KPD2 201203Z 05001KT M04/M06 A3024 RMK A01 T10381062  RH  083%=      5-min Rain = 0
KPD2 201204Z 10000KT M04/M06 A3024 RMK A01 T10371061  RH  083%=      5-min Rain = 0
KPD2 201205Z 10003KT M04/M06 A3024 RMK A01 T10361060  RH  084%=      5-min Rain = 0
KPD2 201206Z 10003KT M03/M05 A3024 RMK A01 T10321054  RH  085%=      5-min Rain = 0
KPD2 201207Z 09002KT M03/M05 A3024 RMK A01 T10261049  RH  084%=      5-min Rain = 0
KPD2 201208Z 11003KT M02/M05 A3024 RMK A01 T10211048  RH  082%=      5-min Rain = 0
KPD2 201209Z 19004KT M02/M05 A3024 RMK A01 T10191052  RH  079%=      5-min Rain = 0
KPD2 201210Z 17004KT M03/M06 A3024 RMK A01 T10251062  RH  076%=      5-min Rain = 0
KPD2 201211Z 14003KT M03/M06 A3024 RMK A01 T10291064  RH  077%=      5-min Rain = 0
KPD2 201212Z 12002KT M03/M06 A3024 RMK A01 T10291060  RH  079%=      5-min Rain = 0
KPD2 201213Z 08003KT M03/M06 A3024 RMK A01 T10271057  RH  080%=      5-min Rain = 0
KPD2 201214Z 10001KT M03/M06 A3024 RMK A01 T10271058  RH  079%=      5-min Rain = 0
KPD2 201215Z 12000KT M03/M06 A3024 RMK A01 T10271058  RH  079%=      5-min Rain = 0
KPD2 201216Z 15001KT M03/M06 A3024 RMK A01 T10291061  RH  078%=      5-min Rain = 0
KPD2 201217Z 11003KT M03/M06 A3024 RMK A01 T10301062  RH  079%=      5-min Rain = 0
KPD2 201218Z 10004KT M03/M06 A3024 RMK A01 T10281058  RH  080%=      5-min Rain = 0
KPD2 201219Z 06002KT M03/M06 A3024 RMK A01 T10261056  RH  080%=      5-min Rain = 0
KPD2 201220Z 04002KT M02/M05 A3024 RMK A01 T10231054  RH  079%=      5-min Rain = 0
KPD2 201221Z 08002KT M02/M05 A3024 RMK A01 T10201054  RH  078%=      5-min Rain = 0
KPD2 201222Z 12001KT M02/M06 A3024 RMK A01 T10211055  RH  077%=      5-min Rain = 0
KPD2 201223Z 19002KT M02/M06 A3024 RMK A01 T10231059  RH  076%=      5-min Rain = 0
KPD2 201224Z 15001KT M03/M06 A3024 RMK A01 T10271062  RH  077%=      5-min Rain = 0
KPD2 201225Z 14001KT M03/M06 A3024 RMK A01 T10281061  RH  078%=      5-min Rain = 0
KPD2 201226Z 13002KT M03/M06 A3024 RMK A01 T10281060  RH  079%=      5-min Rain = 0
KPD2 201227Z 11003KT M03/M06 A3024 RMK A01 T10281059  RH  079%=      5-min Rain = 0
KPD2 201228Z 08002KT M03/M06 A3024 RMK A01 T10281060  RH  079%=      5-min Rain = 0
KPD2 201229Z 08001KT M03/M06 A3024 RMK A01 T10281059  RH  079%=      5-min Rain = 0
KPD2 201230Z 09001KT M03/M06 A3024 RMK A01 T10271059  RH  079%=      5-min Rain = 0
KPD2 201231Z 11001KT M03/M06 A3024 RMK A01 T10291062  RH  078%=      5-min Rain = 0
KPD2 201232Z 12001KT M03/M06 A3024 RMK A01 T10311063  RH  078%=      5-min Rain = 0
KPD2 201233Z 00000KT M03/M06 A3024 RMK A01 T10321063  RH  079%=      5-min Rain = 0
KPD2 201234Z 00000KT M03/M06 A3024 RMK A01 T10321063  RH  080%=      5-min Rain = 0
KPD2 201235Z 00000KT M03/M06 A3024 RMK A01 T10331062  RH  080%=      5-min Rain = 0
KPD2 201236Z 00000KT M03/M06 A3024 RMK A01 T10331062  RH  080%=      5-min Rain = 0
KPD2 201237Z 17000KT M03/M06 A3024 RMK A01 T10341063  RH  080%=      5-min Rain = 0
KPD2 201238Z 17001KT M03/M06 A3024 RMK A01 T10341063  RH  081%=      5-min Rain = 0
KPD2 201239Z 14001KT M03/M06 A3024 RMK A01 T10341061  RH  082%=      5-min Rain = 0
KPD2 201240Z 12001KT M03/M06 A3024 RMK A01 T10331060  RH  082%=      5-min Rain = 0
KPD2 201241Z 06000KT M03/M06 A3024 RMK A01 T10331060  RH  082%=      5-min Rain = 0
KPD2 201242Z 05003KT M03/M06 A3024 RMK A01 T10331060  RH  081%=      5-min Rain = 0
KPD2 201243Z 03003KT M03/M06 A3024 RMK A01 T10321059  RH  081%=      5-min Rain = 0
KPD2 201244Z 01003KT M03/M06 A3024 RMK A01 T10311059  RH  081%=      5-min Rain = 0
KPD2 201245Z 01002KT M03/M06 A3024 RMK A01 T10311059  RH  081%=      5-min Rain = 0
KPD2 201246Z 35002KT M03/M06 A3024 RMK A01 T10291057  RH  081%=      5-min Rain = 0
KPD2 201247Z 00001KT M03/M06 A3024 RMK A01 T10281056  RH  081%=      5-min Rain = 0
KPD2 201248Z 32002KT M03/M06 A3024 RMK A01 T10271056  RH  080%=      5-min Rain = 0
KPD2 201249Z 34002KT M03/M06 A3024 RMK A01 T10261057  RH  080%=      5-min Rain = 0
KPD2 201250Z 02000KT M03/M06 A3024 RMK A01 T10251057  RH  079%=      5-min Rain = 0
KPD2 201251Z 20001KT M02/M06 A3024 RMK A01 T10241057  RH  078%=      5-min Rain = 0
KPD2 201252Z 15002KT M02/M06 A3024 RMK A01 T10241058  RH  077%=      5-min Rain = 0
KPD2 201253Z 13002KT M02/M06 A3024 RMK A01 T10231057  RH  077%=      5-min Rain = 0
KPD2 201254Z 18001KT M02/M06 A3024 RMK A01 T10201055  RH  077%=      5-min Rain = 0
KPD2 201255Z 22006KT M02/M05 A3024 RMK A01 T10181054  RH  076%=      5-min Rain = 0
KPD2 201256Z 17005KT M02/M05 A3024 RMK A01 T10151054  RH  075%=      5-min Rain = 0
KPD2 201257Z 12003KT M01/M06 A3024 RMK A01 T10131055  RH  073%=      5-min Rain = 0
KPD2 201258Z 16003KT M01/M06 A3024 RMK A01 T10131056  RH  073%=      5-min Rain = 0
KPD2 201259Z 17003KT M01/M06 A3024 RMK A01 T10131056  RH  072%=      5-min Rain = 0
KPD2 201300Z 18001KT M01/M06 A3024 RMK A01 T10121055  RH  072%=      5-min Rain = 0
KPD2 201301Z 08001KT M01/M06 A3024 RMK A01 T10101055  RH  072%=      5-min Rain = 0
KPD2 201302Z 05001KT M01/M06 A3024 RMK A01 T10101055  RH  071%=      5-min Rain = 0
KPD2 201303Z 35002KT M01/M06 A3024 RMK A01 T10101055  RH  071%=      5-min Rain = 0
KPD2 201304Z 34000KT M01/M06 A3024 RMK A01 T10101055  RH  071%=      5-min Rain = 0
KPD2 201305Z 18000KT M01/M06 A3024 RMK A01 T10101056  RH  071%=      5-min Rain = 0
KPD2 201306Z 15002KT M01/M06 A3025 RMK A01 T10101056  RH  071%=      5-min Rain = 0
KPD2 201307Z 13002KT M01/M06 A3025 RMK A01 T10101056  RH  071%=      5-min Rain = 0
KPD2 201308Z 17005KT M01/M06 A3025 RMK A01 T10121059  RH  071%=      5-min Rain = 0
KPD2 201309Z 10004KT M01/M06 A3025 RMK A01 T10141059  RH  071%=      5-min Rain = 0
KPD2 201310Z 08004KT M02/M06 A3025 RMK A01 T10151059  RH  072%=      5-min Rain = 0
KPD2 201311Z 09002KT M02/M06 A3025 RMK A01 T10161059  RH  072%=      5-min Rain = 0
KPD2 201312Z 09001KT M02/M06 A3025 RMK A01 T10181060  RH  073%=      5-min Rain = 0
KPD2 201313Z 09000KT M02/M06 A3025 RMK A01 T10181059  RH  074%=      5-min Rain = 0
KPD2 201314Z 36001KT M02/M06 A3025 RMK A01 T10171058  RH  074%=      5-min Rain = 0
KPD2 201315Z 23001KT M02/M06 A3025 RMK A01 T10161057  RH  074%=      5-min Rain = 0
KPD2 201316Z 16001KT M02/M06 A3025 RMK A01 T10151056  RH  074%=      5-min Rain = 0
KPD2 201317Z 17000KT M01/M06 A3025 RMK A01 T10141056  RH  073%=      5-min Rain = 0
KPD2 201318Z 18001KT M01/M06 A3025 RMK A01 T10141057  RH  073%=      5-min Rain = 0
KPD2 201319Z 17000KT M01/M06 A3025 RMK A01 T10141057  RH  073%=      5-min Rain = 0
KPD2 201320Z 23001KT M01/M06 A3025 RMK A01 T10141057  RH  072%=      5-min Rain = 0
KPD2 201321Z 24000KT M01/M06 A3025 RMK A01 T10131057  RH  072%=      5-min Rain = 0
KPD2 201322Z 26000KT M01/M06 A3025 RMK A01 T10121056  RH  072%=      5-min Rain = 0
KPD2 201323Z 23001KT M01/M06 A3025 RMK A01 T10121056  RH  072%=      5-min Rain = 0
KPD2 201324Z 26001KT M01/M06 A3025 RMK A01 T10121057  RH  072%=      5-min Rain = 0
KPD2 201325Z 33002KT M01/M06 A3025 RMK A01 T10131057  RH  072%=      5-min Rain = 0
KPD2 201326Z 01002KT M02/M06 A3025 RMK A01 T10151058  RH  072%=      5-min Rain = 0
KPD2 201327Z 20002KT M02/M06 A3025 RMK A01 T10161058  RH  073%=      5-min Rain = 0
KPD2 201328Z 13001KT M02/M06 A3025 RMK A01 T10161058  RH  073%=      5-min Rain = 0
KPD2 201329Z 08003KT M02/M06 A3025 RMK A01 T10161057  RH  074%=      5-min Rain = 0
KPD2 201330Z 12003KT M02/M06 A3025 RMK A01 T10161057  RH  074%=      5-min Rain = 0
KPD2 201331Z 15003KT M02/M06 A3025 RMK A01 T10171058  RH  073%=      5-min Rain = 0
KPD2 201332Z 16003KT M02/M06 A3025 RMK A01 T10161057  RH  073%=      5-min Rain = 0
KPD2 201333Z 11003KT M01/M06 A3025 RMK A01 T10141057  RH  073%=      5-min Rain = 0
KPD2 201334Z 10003KT M01/M06 A3025 RMK A01 T10141058  RH  072%=      5-min Rain = 0
KPD2 201335Z 12003KT M02/M06 A3025 RMK A01 T10151059  RH  072%=      5-min Rain = 0
KPD2 201336Z 14003KT M02/M06 A3025 RMK A01 T10151058  RH  072%=      5-min Rain = 0
KPD2 201337Z 13003KT M02/M06 A3025 RMK A01 T10151058  RH  072%=      5-min Rain = 0
KPD2 201338Z 16004KT M02/M06 A3025 RMK A01 T10161058  RH  073%=      5-min Rain = 0
KPD2 201339Z 14004KT M02/M06 A3025 RMK A01 T10161058  RH  073%=      5-min Rain = 0
KPD2 201340Z 13004KT M02/M06 A3025 RMK A01 T10151058  RH  073%=      5-min Rain = 0
KPD2 201341Z 11003KT M02/M06 A3025 RMK A01 T10151058  RH  072%=      5-min Rain = 0
KPD2 201342Z 10003KT M02/M06 A3025 RMK A01 T10151059  RH  072%=      5-min Rain = 0
KPD2 201343Z 14002KT M02/M06 A3025 RMK A01 T10161059  RH  073%=      5-min Rain = 0
KPD2 201344Z 13004KT M02/M06 A3025 RMK A01 T10161059  RH  073%=      5-min Rain = 0
KPD2 201345Z 15004KT M02/M06 A3025 RMK A01 T10161059  RH  073%=      5-min Rain = 0
KPD2 201346Z 15003KT M02/M06 A3025 RMK A01 T10161058  RH  073%=      5-min Rain = 0
KPD2 201347Z 13003KT M02/M06 A3025 RMK A01 T10151058  RH  073%=      5-min Rain = 0
KPD2 201348Z 13004KT M02/M06 A3025 RMK A01 T10151058  RH  072%=      5-min Rain = 0
KPD2 201349Z 13003KT M02/M06 A3025 RMK A01 T10151057  RH  073%=      5-min Rain = 0
KPD2 201350Z 15003KT M02/M06 A3025 RMK A01 T10151058  RH  073%=      5-min Rain = 0
KPD2 201351Z 16002KT M02/M06 A3025 RMK A01 T10161058  RH  073%=      5-min Rain = 0
KPD2 201352Z 15003KT M02/M06 A3025 RMK A01 T10161058  RH  073%=      5-min Rain = 0
KPD2 201353Z 12001KT M02/M06 A3025 RMK A01 T10161058  RH  073%=      5-min Rain = 0
KPD2 201354Z 12002KT M02/M06 A3025 RMK A01 T10151057  RH  073%=      5-min Rain = 0
KPD2 201355Z 22002KT M02/M06 A3025 RMK A01 T10151057  RH  073%=      5-min Rain = 0
KPD2 201356Z 23001KT M01/M06 A3025 RMK A01 T10141057  RH  073%=      5-min Rain = 0
KPD2 201357Z 08000KT M01/M06 A3025 RMK A01 T10141057  RH  073%=      5-min Rain = 0
KPD2 201358Z 33001KT M01/M06 A3025 RMK A01 T10141056  RH  073%=      5-min Rain = 0
KPD2 201359Z 00001KT M01/M06 A3025 RMK A01 T10141056  RH  073%=      5-min Rain = 0
KPD2 201400Z 03000KT M01/M06 A3025 RMK A01 T10141056  RH  073%=      5-min Rain = 0
KPD2 201401Z 03000KT M01/M06 A3025 RMK A01 T10141056  RH  073%=      5-min Rain = 0
KPD2 201402Z 07001KT M01/M06 A3025 RMK A01 T10141056  RH  073%=      5-min Rain = 0
KPD2 201403Z 07002KT M01/M06 A3024 RMK A01 T10141056  RH  073%=      5-min Rain = 0
KPD2 201404Z 09003KT M02/M06 A3024 RMK A01 T10151057  RH  073%=      5-min Rain = 0
KPD2 201405Z 10003KT M02/M06 A3024 RMK A01 T10151057  RH  073%=      5-min Rain = 0
KPD2 201406Z 09003KT M02/M06 A3024 RMK A01 T10151057  RH  073%=      5-min Rain = 0
KPD2 201407Z 10003KT M02/M06 A3024 RMK A01 T10161057  RH  073%=      5-min Rain = 0
KPD2 201408Z 14001KT M02/M06 A3024 RMK A01 T10151056  RH  074%=      5-min Rain = 0
KPD2 201409Z 12001KT M02/M06 A3024 RMK A01 T10151056  RH  074%=      5-min Rain = 0
KPD2 201410Z 11000KT M01/M06 A3025 RMK A01 T10141055  RH  074%=      5-min Rain = 0
KPD2 201411Z 05000KT M01/M06 A3025 RMK A01 T10141055  RH  073%=      5-min Rain = 0
KPD2 201412Z 05002KT M01/M06 A3025 RMK A01 T10131055  RH  073%=      5-min Rain = 0
KPD2 201413Z 08001KT M01/M06 A3025 RMK A01 T10131055  RH  073%=      5-min Rain = 0
KPD2 201414Z 12001KT M01/M06 A3024 RMK A01 T10131055  RH  073%=      5-min Rain = 0
KPD2 201415Z 14003KT M01/M06 A3024 RMK A01 T10131055  RH  073%=      5-min Rain = 0
KPD2 201416Z 18002KT M01/M05 A3025 RMK A01 T10131054  RH  074%=      5-min Rain = 0
KPD2 201417Z 17000KT M01/M05 A3025 RMK A01 T10131054  RH  074%=      5-min Rain = 0
KPD2 201418Z 15000KT M01/M05 A3025 RMK A01 T10131054  RH  074%=      5-min Rain = 0
KPD2 201419Z 13002KT M01/M05 A3025 RMK A01 T10131053  RH  074%=      5-min Rain = 0
KPD2 201420Z 16001KT M01/M05 A3025 RMK A01 T10121053  RH  074%=      5-min Rain = 0
KPD2 201421Z 10000KT M01/M05 A3025 RMK A01 T10121053  RH  073%=      5-min Rain = 0
KPD2 201422Z 03001KT M01/M05 A3025 RMK A01 T10111053  RH  073%=      5-min Rain = 0
KPD2 201423Z 10003KT M01/M05 A3025 RMK A01 T10111053  RH  073%=      5-min Rain = 0
KPD2 201424Z 12003KT M01/M05 A3025 RMK A01 T10111053  RH  073%=      5-min Rain = 0
KPD2 201425Z 14003KT M01/M05 A3025 RMK A01 T10111053  RH  073%=      5-min Rain = 0
KPD2 201426Z 12002KT M01/M05 A3025 RMK A01 T10101053  RH  073%=      5-min Rain = 0
KPD2 201427Z 11002KT M01/M05 A3025 RMK A01 T10091052  RH  073%=      5-min Rain = 0
KPD2 201428Z 15001KT M01/M05 A3025 RMK A01 T10091052  RH  073%=      5-min Rain = 0
KPD2 201429Z 16003KT M01/M05 A3025 RMK A01 T10091052  RH  073%=      5-min Rain = 0
KPD2 201430Z 17004KT M01/M05 A3025 RMK A01 T10091053  RH  072%=      5-min Rain = 0
KPD2 201431Z 16003KT M01/M05 A3025 RMK A01 T10091053  RH  072%=      5-min Rain = 0
KPD2 201432Z 16003KT M01/M05 A3025 RMK A01 T10091053  RH  072%=      5-min Rain = 0
KPD2 201433Z 17002KT M01/M05 A3025 RMK A01 T10091053  RH  072%=      5-min Rain = 0
KPD2 201434Z 16002KT M01/M05 A3025 RMK A01 T10091053  RH  072%=      5-min Rain = 0
KPD2 201435Z 18002KT M01/M05 A3025 RMK A01 T10091053  RH  072%=      5-min Rain = 0
KPD2 201436Z 14003KT M01/M05 A3025 RMK A01 T10091053  RH  072%=      5-min Rain = 0
KPD2 201437Z 11004KT M01/M05 A3024 RMK A01 T10101053  RH  072%=      5-min Rain = 0
KPD2 201438Z 12002KT M01/M05 A3024 RMK A01 T10111053  RH  073%=      5-min Rain = 0
KPD2 201439Z 18001KT M01/M05 A3024 RMK A01 T10111052  RH  073%=      5-min Rain = 0
KPD2 201440Z 17002KT M01/M05 A3024 RMK A01 T10111052  RH  074%=      5-min Rain = 0
KPD2 201441Z 17003KT M01/M05 A3024 RMK A01 T10091051  RH  073%=      5-min Rain = 0
KPD2 201442Z 20004KT M01/M05 A3024 RMK A01 T10081050  RH  073%=      5-min Rain = 0
KPD2 201443Z 22003KT M01/M05 A3024 RMK A01 T10061050  RH  072%=      5-min Rain = 0
KPD2 201444Z 20000KT M01/M05 A3024 RMK A01 T10051049  RH  072%=      5-min Rain = 0
KPD2 201445Z 17002KT M01/M05 A3024 RMK A01 T10051049  RH  072%=      5-min Rain = 0
KPD2 201446Z 14002KT M01/M05 A3024 RMK A01 T10051050  RH  072%=      5-min Rain = 0
KPD2 201447Z 13001KT M00/M05 A3024 RMK A01 T10041050  RH  071%=      5-min Rain = 0
KPD2 201448Z 00000KT M00/M05 A3024 RMK A01 T10041050  RH  071%=      5-min Rain = 0
KPD2 201449Z 17000KT M00/M05 A3024 RMK A01 T10041050  RH  071%=      5-min Rain = 0
KPD2 201450Z 16001KT M00/M05 A3024 RMK A01 T10041049  RH  072%=      5-min Rain = 0
KPD2 201451Z 12002KT M00/M05 A3024 RMK A01 T10041049  RH  072%=      5-min Rain = 0
KPD2 201452Z 15002KT M00/M05 A3024 RMK A01 T10041049  RH  072%=      5-min Rain = 0
KPD2 201453Z 15001KT M00/M05 A3024 RMK A01 T10031049  RH  071%=      5-min Rain = 0
KPD2 201454Z 14002KT M00/M05 A3024 RMK A01 T10021048  RH  071%=      5-min Rain = 0
KPD2 201455Z 13001KT M00/M05 A3023 RMK A01 T10021048  RH  071%=      5-min Rain = 0
KPD2 201456Z 12001KT M00/M05 A3023 RMK A01 T10021048  RH  071%=      5-min Rain = 0
KPD2 201457Z 10000KT M00/M05 A3023 RMK A01 T10011048  RH  071%=      5-min Rain = 0
KPD2 201458Z 00000KT M00/M05 A3023 RMK A01 T10011047  RH  071%=      5-min Rain = 0
KPD2 201459Z 10001KT 00/05 A3023 RMK A01 T00-00-47  RH  071%=      5-min Rain = 0
KPD2 201500Z 11003KT 00/05 A3023 RMK A01 T00-00-46  RH  071%=      5-min Rain = 0
KPD2 201501Z 11000KT 00/05 A3023 RMK A01 T00000-46  RH  071%=      5-min Rain = 0
KPD2 201502Z 00000KT 00/05 A3023 RMK A01 T00000-47  RH  071%=      5-min Rain = 0
KPD2 201503Z 08001KT 00/05 A3023 RMK A01 T00000-47  RH  071%=      5-min Rain = 0
KPD2 201504Z 07001KT 00/05 A3023 RMK A01 T00000-47  RH  071%=      5-min Rain = 0
KPD2 201505Z 07000KT 00/05 A3023 RMK A01 T00000-47  RH  071%=      5-min Rain = 0
KPD2 201506Z 07001KT 00/M05 A3023 RMK A01 T00011046  RH  071%=      5-min Rain = 0
KPD2 201507Z 07001KT 00/M05 A3023 RMK A01 T00011045  RH  071%=      5-min Rain = 0
KPD2 201508Z 08002KT 00/M05 A3023 RMK A01 T00021045  RH  071%=      5-min Rain = 0
KPD2 201509Z 09003KT 00/M05 A3023 RMK A01 T00031046  RH  070%=      5-min Rain = 0
KPD2 201510Z 12002KT 00/M05 A3023 RMK A01 T00031046  RH  070%=      5-min Rain = 0
KPD2 201511Z 11002KT 00/M05 A3023 RMK A01 T00041045  RH  069%=      5-min Rain = 0
KPD2 201512Z 09002KT 01/M05 A3023 RMK A01 T00051045  RH  069%=      5-min Rain = 0
KPD2 201513Z 09003KT 01/M04 A3023 RMK A01 T00051044  RH  069%=      5-min Rain = 0
KPD2 201514Z 10003KT 01/M04 A3023 RMK A01 T00061044  RH  069%=      5-min Rain = 0
KPD2 201515Z 13001KT 01/M04 A3023 RMK A01 T00071044  RH  069%=      5-min Rain = 0
KPD2 201516Z 11002KT 01/M04 A3023 RMK A01 T00071044  RH  069%=      5-min Rain = 0
KPD2 201517Z 12001KT 01/M04 A3023 RMK A01 T00081044  RH  068%=      5-min Rain = 0
KPD2 201518Z 10002KT 01/M04 A3023 RMK A01 T00081043  RH  069%=      5-min Rain = 0
KPD2 201519Z 13002KT 01/M04 A3023 RMK A01 T00091042  RH  069%=      5-min Rain = 0
KPD2 201520Z 19002KT 01/M04 A3023 RMK A01 T00091044  RH  068%=      5-min Rain = 0
KPD2 201521Z 17001KT 01/M04 A3023 RMK A01 T00091044  RH  067%=      5-min Rain = 0
KPD2 201522Z 00000KT 01/M05 A3023 RMK A01 T00091045  RH  067%=      5-min Rain = 0
KPD2 201523Z 00000KT 01/M05 A3023 RMK A01 T00101045  RH  067%=      5-min Rain = 0
KPD2 201524Z 07001KT 01/M04 A3023 RMK A01 T00101044  RH  067%=      5-min Rain = 0
KPD2 201525Z 11001KT 01/M04 A3023 RMK A01 T00101044  RH  067%=      5-min Rain = 0
KPD2 201526Z 17001KT 01/M04 A3023 RMK A01 T00111043  RH  067%=      5-min Rain = 0
KPD2 201527Z 15001KT 01/M04 A3023 RMK A01 T00111041  RH  068%=      5-min Rain = 0
KPD2 201528Z 17002KT 01/M04 A3023 RMK A01 T00111041  RH  068%=      5-min Rain = 0
KPD2 201529Z 15002KT 01/M04 A3023 RMK A01 T00111042  RH  068%=      5-min Rain = 0
KPD2 201530Z 11003KT 01/M04 A3023 RMK A01 T00121041  RH  068%=      5-min Rain = 0
KPD2 201531Z 12004KT 01/M04 A3023 RMK A01 T00121041  RH  067%=      5-min Rain = 0
KPD2 201532Z 15002KT 01/M04 A3023 RMK A01 T00131041  RH  067%=      5-min Rain = 0
KPD2 201533Z 17002KT 01/M04 A3023 RMK A01 T00141040  RH  067%=      5-min Rain = 0
KPD2 201534Z 19002KT 02/M04 A3023 RMK A01 T00151040  RH  067%=      5-min Rain = 0
KPD2 201535Z 11003KT 02/M04 A3023 RMK A01 T00161040  RH  066%=      5-min Rain = 0
KPD2 201536Z 11002KT 02/M04 A3023 RMK A01 T00161039  RH  067%=      5-min Rain = 0
KPD2 201537Z 10001KT 02/M04 A3023 RMK A01 T00171039  RH  066%=      5-min Rain = 0
KPD2 201538Z 33001KT 02/M04 A3023 RMK A01 T00181040  RH  066%=      5-min Rain = 0
KPD2 201539Z 04002KT 02/M04 A3022 RMK A01 T00181040  RH  065%=      5-min Rain = 0
KPD2 201540Z 35001KT 02/M04 A3022 RMK A01 T00181040  RH  065%=      5-min Rain = 0
KPD2 201541Z 29003KT 02/M04 A3022 RMK A01 T00191038  RH  066%=      5-min Rain = 0
KPD2 201542Z 30003KT 02/M04 A3022 RMK A01 T00201037  RH  066%=      5-min Rain = 0
KPD2 201543Z 30002KT 02/M04 A3022 RMK A01 T00211037  RH  066%=      5-min Rain = 0
KPD2 201544Z 30002KT 02/M04 A3022 RMK A01 T00211037  RH  065%=      5-min Rain = 0
KPD2 201545Z 00002KT 02/M04 A3022 RMK A01 T00221038  RH  065%=      5-min Rain = 0
KPD2 201546Z 33001KT 02/M04 A3022 RMK A01 T00231036  RH  065%=      5-min Rain = 0
KPD2 201547Z 35002KT 02/M04 A3022 RMK A01 T00231037  RH  065%=      5-min Rain = 0
KPD2 201548Z 02004KT 02/M04 A3022 RMK A01 T00241035  RH  065%=      5-min Rain = 0
KPD2 201549Z 01003KT 03/M04 A3022 RMK A01 T00251036  RH  064%=      5-min Rain = 0
KPD2 201550Z 00003KT 03/M04 A3022 RMK A01 T00251037  RH  064%=      5-min Rain = 0
KPD2 201551Z 01004KT 03/M04 A3022 RMK A01 T00251036  RH  064%=      5-min Rain = 0
KPD2 201552Z 33004KT 03/M03 A3022 RMK A01 T00261032  RH  065%=      5-min Rain = 0
KPD2 201553Z 00003KT 03/M04 A3022 RMK A01 T00271035  RH  064%=      5-min Rain = 0
KPD2 201554Z 34005KT 03/M03 A3022 RMK A01 T00271034  RH  064%=      5-min Rain = 0
KPD2 201555Z 31004KT 03/M03 A3022 RMK A01 T00271034  RH  064%=      5-min Rain = 0
KPD2 201556Z 27003KT 03/M03 A3022 RMK A01 T00281033  RH  064%=      5-min Rain = 0
KPD2 201557Z 28002KT 03/M03 A3021 RMK A01 T00291034  RH  063%=      5-min Rain = 0
KPD2 201558Z 29003KT 03/M03 A3021 RMK A01 T00291034  RH  063%=      5-min Rain = 0
KPD2 201559Z 10001KT 03/M03 A3021 RMK A01 T00291034  RH  063%=      5-min Rain = 0
KPD2 201600Z 03001KT 03/M03 A3021 RMK A01 T00301033  RH  063%=      5-min Rain = 0
KPD2 201601Z 01004KT 03/M03 A3021 RMK A01 T00311032  RH  063%=      5-min Rain = 0
KPD2 201602Z 36003KT 03/M03 A3021 RMK A01 T00321031  RH  063%=      5-min Rain = 0
KPD2 201603Z 30002KT 03/M03 A3021 RMK A01 T00321032  RH  063%=      5-min Rain = 0
KPD2 201604Z 31002KT 03/M03 A3021 RMK A01 T00331031  RH  063%=      5-min Rain = 0
KPD2 201605Z 25003KT 03/M03 A3021 RMK A01 T00341031  RH  062%=      5-min Rain = 0
KPD2 201606Z 26003KT 03/M03 A3021 RMK A01 T00341031  RH  062%=      5-min Rain = 0
KPD2 201607Z 30003KT 03/M03 A3021 RMK A01 T00341031  RH  062%=      5-min Rain = 0
KPD2 201608Z 34001KT 04/M03 A3021 RMK A01 T00351032  RH  062%=      5-min Rain = 0
KPD2 201609Z 34002KT 03/M03 A3021 RMK A01 T00341032  RH  062%=      5-min Rain = 0
KPD2 201610Z 35003KT 04/M03 A302 RMK A01 T00351030  RH  062%=      5-min Rain = 0
KPD2 201611Z 34003KT 04/M03 A302 RMK A01 T00361029  RH  062%=      5-min Rain = 0
KPD2 201612Z 35003KT 04/M03 A302 RMK A01 T00371030  RH  062%=      5-min Rain = 0
KPD2 201613Z 33003KT 04/M03 A302 RMK A01 T00371030  RH  062%=      5-min Rain = 0
KPD2 201614Z 03002KT 04/M03 A302 RMK A01 T00371030  RH  061%=      5-min Rain = 0
KPD2 201615Z 36003KT 04/M03 A302 RMK A01 T00371030  RH  062%=      5-min Rain = 0
KPD2 201616Z 34003KT 04/M03 A302 RMK A01 T00381028  RH  062%=      5-min Rain = 0
KPD2 201617Z 00005KT 04/M03 A302 RMK A01 T00391027  RH  062%=      5-min Rain = 0
KPD2 201618Z 30006KT 04/M03 A302 RMK A01 T00401026  RH  062%=      5-min Rain = 0
KPD2 201619Z 26001KT 04/M03 A3021 RMK A01 T00401028  RH  061%=      5-min Rain = 0
KPD2 201620Z 35000KT 04/M03 A3021 RMK A01 T00411028  RH  061%=      5-min Rain = 0
KPD2 201621Z 03001KT 04/M03 A3021 RMK A01 T00411028  RH  061%=      5-min Rain = 0
KPD2 201622Z 03003KT 04/M03 A3021 RMK A01 T00431026  RH  061%=      5-min Rain = 0
KPD2 201623Z 00002KT 04/M03 A3021 RMK A01 T00441026  RH  060%=      5-min Rain = 0
KPD2 201624Z 33004KT 05/M02 A3021 RMK A01 T00451024  RH  061%=      5-min Rain = 0
KPD2 201625Z 36003KT 05/M03 A3021 RMK A01 T00471025  RH  060%=      5-min Rain = 0
KPD2 201626Z 00004KT 05/M03 A3021 RMK A01 T00471026  RH  059%=      5-min Rain = 0
KPD2 201627Z 32003KT 05/M03 A3021 RMK A01 T00471026  RH  059%=      5-min Rain = 0
KPD2 201628Z 32005KT 05/M03 A3021 RMK A01 T00471026  RH  059%=      5-min Rain = 0
KPD2 201629Z 35003KT 05/M03 A3021 RMK A01 T00471027  RH  059%=      5-min Rain = 0
KPD2 201630Z 35004KT 05/M03 A3021 RMK A01 T00471025  RH  060%=      5-min Rain = 0
KPD2 201631Z 32002KT 05/M02 A3021 RMK A01 T00501021  RH  060%=      5-min Rain = 0
KPD2 201632Z 31003KT 05/M02 A302 RMK A01 T00511023  RH  059%=      5-min Rain = 0
KPD2 201633Z 02001KT 05/M03 A302 RMK A01 T00511025  RH  058%=      5-min Rain = 0
KPD2 201634Z 04002KT 05/M02 A302 RMK A01 T00511024  RH  058%=      5-min Rain = 0
KPD2 201635Z 34001KT 05/M03 A302 RMK A01 T00511025  RH  058%=      5-min Rain = 0
KPD2 201636Z 33002KT 05/M03 A302 RMK A01 T00521025  RH  058%=      5-min Rain = 0
KPD2 201637Z 35001KT 05/M03 A302 RMK A01 T00521025  RH  057%=      5-min Rain = 0
KPD2 201638Z 27001KT 05/M03 A302 RMK A01 T00511026  RH  057%=      5-min Rain = 0
KPD2 201639Z 15002KT 05/M02 A302 RMK A01 T00521024  RH  058%=      5-min Rain = 0
KPD2 201640Z 13004KT 05/M02 A302 RMK A01 T00531024  RH  058%=      5-min Rain = 0
KPD2 201641Z 10004KT 05/M03 A302 RMK A01 T00531025  RH  057%=      5-min Rain = 0
KPD2 201642Z 17002KT 05/M03 A302 RMK A01 T00531026  RH  057%=      5-min Rain = 0
KPD2 201643Z 21004KT 05/M03 A302 RMK A01 T00531025  RH  057%=      5-min Rain = 0
KPD2 201644Z 30004KT 05/M02 A302 RMK A01 T00531024  RH  058%=      5-min Rain = 0
KPD2 201645Z 29005KT 05/M02 A302 RMK A01 T00541024  RH  057%=      5-min Rain = 0
KPD2 201646Z 24004KT 06/M02 A302 RMK A01 T00551023  RH  057%=      5-min Rain = 0
KPD2 201647Z 17003KT 06/M02 A302 RMK A01 T00561023  RH  057%=      5-min Rain = 0
KPD2 201648Z 14003KT 06/M03 A302 RMK A01 T00561025  RH  056%=      5-min Rain = 0
KPD2 201649Z 17002KT 06/M03 A302 RMK A01 T00561025  RH  056%=      5-min Rain = 0
KPD2 201650Z 26002KT 06/M02 A302 RMK A01 T00561024  RH  056%=      5-min Rain = 0
KPD2 201651Z 01002KT 06/M02 A3019 RMK A01 T00571022  RH  057%=      5-min Rain = 0
KPD2 201652Z 26004KT 06/M02 A302 RMK A01 T00601020  RH  057%=      5-min Rain = 0
KPD2 201653Z 19002KT 06/M02 A3019 RMK A01 T00611020  RH  056%=      5-min Rain = 0
KPD2 201654Z 21002KT 06/M02 A3019 RMK A01 T00621023  RH  055%=      5-min Rain = 0
KPD2 201655Z 22003KT 06/M02 A3019 RMK A01 T00621023  RH  055%=      5-min Rain = 0
KPD2 201656Z 28002KT 06/M02 A3019 RMK A01 T00621023  RH  054%=      5-min Rain = 0
KPD2 201657Z 31001KT 06/M02 A3019 RMK A01 T00621022  RH  055%=      5-min Rain = 0
KPD2 201658Z 13002KT 06/M02 A3019 RMK A01 T00631021  RH  055%=      5-min Rain = 0
KPD2 201659Z 18002KT 07/M02 A3019 RMK A01 T00651021  RH  054%=      5-min Rain = 0
KPD2 201700Z 20001KT 07/M02 A3019 RMK A01 T00651022  RH  054%=      5-min Rain = 0
KPD2 201701Z 14002KT 07/M02 A3018 RMK A01 T00651023  RH  053%=      5-min Rain = 0
KPD2 201702Z 16004KT 07/M02 A3018 RMK A01 T00651023  RH  053%=      5-min Rain = 0
KPD2 201703Z 17003KT 07/M02 A3018 RMK A01 T00651022  RH  053%=      5-min Rain = 0
KPD2 201704Z 12002KT 07/M02 A3018 RMK A01 T00651022  RH  053%=      5-min Rain = 0
KPD2 201705Z 07002KT 07/M02 A3018 RMK A01 T00651022  RH  053%=      5-min Rain = 0
KPD2 201706Z 10002KT 07/M02 A3018 RMK A01 T00651023  RH  053%=      5-min Rain = 0
KPD2 201707Z 08002KT 07/M02 A3018 RMK A01 T00661021  RH  054%=      5-min Rain = 0
KPD2 201708Z 11002KT 07/M02 A3018 RMK A01 T00681022  RH  053%=      5-min Rain = 0
KPD2 201709Z 10003KT 07/M02 A3018 RMK A01 T00681022  RH  053%=      5-min Rain = 0
KPD2 201710Z 14002KT 07/M02 A3018 RMK A01 T00691021  RH  053%=      5-min Rain = 0
KPD2 201711Z 16002KT 07/M02 A3018 RMK A01 T00691021  RH  052%=      5-min Rain = 0
KPD2 201712Z 15003KT 07/M02 A3018 RMK A01 T00701020  RH  053%=      5-min Rain = 0
KPD2 201713Z 17003KT 07/M02 A3018 RMK A01 T00711019  RH  053%=      5-min Rain = 0
KPD2 201714Z 16003KT 07/M02 A3018 RMK A01 T00711020  RH  052%=      5-min Rain = 0
KPD2 201715Z 17003KT 07/M02 A3018 RMK A01 T00721020  RH  052%=      5-min Rain = 0
KPD2 201716Z 17004KT 07/M02 A3018 RMK A01 T00721020  RH  052%=      5-min Rain = 0
KPD2 201717Z 17003KT 07/M02 A3018 RMK A01 T00721020  RH  052%=      5-min Rain = 0
KPD2 201718Z 12004KT 07/M02 A3018 RMK A01 T00731019  RH  052%=      5-min Rain = 0
KPD2 201719Z 16003KT 08/M02 A3018 RMK A01 T00751018  RH  052%=      5-min Rain = 0
KPD2 201720Z 14006KT 08/M02 A3018 RMK A01 T00771017  RH  051%=      5-min Rain = 0
KPD2 201721Z 18004KT 08/M02 A3018 RMK A01 T00781017  RH  051%=      5-min Rain = 0
KPD2 201722Z 19003KT 08/M02 A3018 RMK A01 T00801017  RH  051%=      5-min Rain = 0
KPD2 201723Z 18003KT 08/M02 A3018 RMK A01 T00811017  RH  050%=      5-min Rain = 0
KPD2 201724Z 19003KT 08/M02 A3018 RMK A01 T00831017  RH  049%=      5-min Rain = 0
KPD2 201725Z 15002KT 08/M02 A3018 RMK A01 T00841017  RH  049%=      5-min Rain = 0
KPD2 201726Z 15003KT 09/M02 A3018 RMK A01 T00851018  RH  049%=      5-min Rain = 0
KPD2 201727Z 11005KT 09/M02 A3017 RMK A01 T00851018  RH  048%=      5-min Rain = 0
KPD2 201728Z 14004KT 09/M02 A3017 RMK A01 T00851018  RH  048%=      5-min Rain = 0
KPD2 201729Z 17005KT 09/M02 A3017 RMK A01 T00851019  RH  048%=      5-min Rain = 0
KPD2 201730Z 14004KT 09/M02 A3017 RMK A01 T00851020  RH  048%=      5-min Rain = 0
KPD2 201731Z 16004KT 09/M02 A3018 RMK A01 T00861019  RH  048%=      5-min Rain = 0
KPD2 201732Z 20002KT 09/M02 A3018 RMK A01 T00871018  RH  048%=      5-min Rain = 0
KPD2 201733Z 19004KT 09/M02 A3018 RMK A01 T00891018  RH  047%=      5-min Rain = 0
KPD2 201734Z 20005KT 09/M02 A3017 RMK A01 T00911018  RH  046%=      5-min Rain = 0
KPD2 201735Z 19004KT 09/M02 A3017 RMK A01 T00931018  RH  046%=      5-min Rain = 0
KPD2 201736Z 18004KT 09/M02 A3017 RMK A01 T00941017  RH  046%=      5-min Rain = 0
KPD2 201737Z 18005KT 10/M02 A3017 RMK A01 T00961019  RH  045%=      5-min Rain = 0
KPD2 201738Z 18005KT 10/M02 A3017 RMK A01 T00961019  RH  045%=      5-min Rain = 0
KPD2 201739Z 21004KT 10/M02 A3017 RMK A01 T00961018  RH  045%=      5-min Rain = 0
KPD2 201740Z 24002KT 10/M02 A3017 RMK A01 T00971018  RH  044%=      5-min Rain = 0
KPD2 201741Z 29001KT 10/M02 A3017 RMK A01 T00981020  RH  044%=      5-min Rain = 0
KPD2 201742Z 15002KT 10/M02 A3017 RMK A01 T00991020  RH  043%=      5-min Rain = 0
KPD2 201743Z 20003KT 10/M02 A3017 RMK A01 T01011019  RH  043%=      5-min Rain = 0
KPD2 201744Z 23002KT 10/M02 A3017 RMK A01 T01021020  RH  042%=      5-min Rain = 0
KPD2 201745Z 30002KT 10/M02 A3017 RMK A01 T01031021  RH  042%=      5-min Rain = 0
KPD2 201746Z 25002KT 10/M02 A3016 RMK A01 T01021022  RH  042%=      5-min Rain = 0
KPD2 201747Z 24004KT 10/M02 A3016 RMK A01 T01031020  RH  042%=      5-min Rain = 0
KPD2 201748Z 25002KT 11/M02 A3016 RMK A01 T01061017  RH  042%=      5-min Rain = 0
KPD2 201749Z 21004KT 11/M02 A3016 RMK A01 T01071021  RH  041%=      5-min Rain = 0
KPD2 201750Z 20003KT 11/M02 A3016 RMK A01 T01071022  RH  040%=      5-min Rain = 0
KPD2 201751Z 23003KT 11/M02 A3016 RMK A01 T01071022  RH  041%=      5-min Rain = 0
KPD2 201752Z 26005KT 11/M02 A3016 RMK A01 T01081021  RH  040%=      5-min Rain = 0
KPD2 201753Z 26005KT 11/M02 A3016 RMK A01 T01101020  RH  040%=      5-min Rain = 0
KPD2 201754Z 24003KT 11/M02 A3016 RMK A01 T01111021  RH  040%=      5-min Rain = 0
KPD2 201755Z 25004KT 11/M02 A3016 RMK A01 T01111021  RH  040%=      5-min Rain = 0
KPD2 201756Z 16002KT 11/M02 A3016 RMK A01 T01111022  RH  039%=      5-min Rain = 0
KPD2 201757Z 26002KT 11/M02 A3016 RMK A01 T01121023  RH  039%=      5-min Rain = 0
KPD2 201758Z 28005KT 11/M02 A3016 RMK A01 T01131021  RH  039%=      5-min Rain = 0
KPD2 201759Z 26007KT 12/M02 A3016 RMK A01 T01161019  RH  039%=      5-min Rain = 0
KPD2 201800Z 26009KT 12/M02 A3016 RMK A01 T01181022  RH  038%=      5-min Rain = 0
KPD2 201801Z 24006KT 12/M03 A3016 RMK A01 T01161026  RH  037%=      5-min Rain = 0
KPD2 201802Z 28007KT 12/M02 A3016 RMK A01 T01161024  RH  038%=      5-min Rain = 0
KPD2 201803Z 25005KT 12/M02 A3016 RMK A01 T01151024  RH  038%=      5-min Rain = 0
KPD2 201804Z 24006KT 12/M02 A3016 RMK A01 T01181020  RH  038%=      5-min Rain = 0
KPD2 201805Z 23004KT 12/M02 A3016 RMK A01 T01191022  RH  037%=      5-min Rain = 0
KPD2 201806Z 21003KT 12/M02 A3016 RMK A01 T01201023  RH  037%=      5-min Rain = 0
KPD2 201807Z 19004KT 12/M02 A3016 RMK A01 T01201021  RH  037%=      5-min Rain = 0
KPD2 201808Z 20007KT 12/M02 A3016 RMK A01 T01221022  RH  037%=      5-min Rain = 0
KPD2 201809Z 21003KT 12/M02 A3016 RMK A01 T01221022  RH  037%=      5-min Rain = 0
KPD2 201810Z 15001KT 12/M02 A3016 RMK A01 T01211022  RH  037%=      5-min Rain = 0
KPD2 201811Z 22001KT 12/M02 A3016 RMK A01 T01231019  RH  037%=      5-min Rain = 0
KPD2 201812Z 29002KT 13/M02 A3016 RMK A01 T01251021  RH  036%=      5-min Rain = 0
KPD2 201813Z 28002KT 13/M02 A3015 RMK A01 T01251023  RH  036%=      5-min Rain = 0
KPD2 201814Z 26001KT 12/M02 A3015 RMK A01 T01241022  RH  036%=      5-min Rain = 0
KPD2 201815Z 26005KT 13/M02 A3015 RMK A01 T01251023  RH  036%=      5-min Rain = 0
KPD2 201816Z 22004KT 13/M02 A3015 RMK A01 T01251024  RH  035%=      5-min Rain = 0
KPD2 201817Z 23003KT 13/M02 A3015 RMK A01 T01251024  RH  035%=      5-min Rain = 0
KPD2 201818Z 21005KT 13/M02 A3015 RMK A01 T01261022  RH  036%=      5-min Rain = 0
KPD2 201819Z 23006KT 13/M02 A3015 RMK A01 T01281023  RH  035%=      5-min Rain = 0
KPD2 201820Z 24007KT 13/M02 A3015 RMK A01 T01271023  RH  035%=      5-min Rain = 0
KPD2 201821Z 21004KT 13/M03 A3015 RMK A01 T01251026  RH  035%=      5-min Rain = 0
KPD2 201822Z 21003KT 12/M03 A3014 RMK A01 T01231025  RH  036%=      5-min Rain = 0
KPD2 201823Z 18001KT 13/M02 A3014 RMK A01 T01251022  RH  036%=      5-min Rain = 0
KPD2 201824Z 31002KT 13/M02 A3014 RMK A01 T01281020  RH  036%=      5-min Rain = 0
KPD2 201825Z 28004KT 13/M02 A3014 RMK A01 T01291023  RH  035%=      5-min Rain = 0
KPD2 201826Z 28007KT 13/M02 A3014 RMK A01 T01301023  RH  035%=      5-min Rain = 0
KPD2 201827Z 25004KT 13/M02 A3014 RMK A01 T01281024  RH  035%=      5-min Rain = 0
KPD2 201828Z 24001KT 13/M02 A3014 RMK A01 T01281022  RH  035%=      5-min Rain = 0
KPD2 201829Z 26005KT 13/M02 A3014 RMK A01 T01291023  RH  035%=      5-min Rain = 0
KPD2 201830Z 23004G11KT 13/M02 A3014 RMK A01 T01301023  RH  034%=      5-min Rain = 0
KPD2 201831Z 26003KT 13/M03 A3014 RMK A01 T01301025  RH  034%=      5-min Rain = 0
KPD2 201832Z 23003KT 13/M03 A3014 RMK A01 T01281026  RH  034%=      5-min Rain = 0
KPD2 201833Z 19005KT 13/M02 A3014 RMK A01 T01291024  RH  035%=      5-min Rain = 0
KPD2 201834Z 17005KT 13/M03 A3013 RMK A01 T01291025  RH  034%=      5-min Rain = 0
KPD2 201835Z 24005KT 13/M03 A3014 RMK A01 T01281025  RH  034%=      5-min Rain = 0
KPD2 201836Z 24004KT 13/M03 A3013 RMK A01 T01281025  RH  034%=      5-min Rain = 0
KPD2 201837Z 26005KT 13/M03 A3013 RMK A01 T01291025  RH  034%=      5-min Rain = 0
KPD2 201838Z 24006KT 13/M03 A3013 RMK A01 T01301027  RH  034%=      5-min Rain = 0
KPD2 201839Z 18003KT 13/M03 A3013 RMK A01 T01311027  RH  033%=      5-min Rain = 0
KPD2 201840Z 26003KT 13/M03 A3013 RMK A01 T01311027  RH  033%=      5-min Rain = 0
KPD2 201841Z 22005G10KT 13/M03 A3013 RMK A01 T01321025  RH  034%=      5-min Rain = 0
KPD2 201842Z 26008KT 13/M03 A3013 RMK A01 T01331029  RH  032%=      5-min Rain = 0
KPD2 201843Z 26006KT 13/M03 A3013 RMK A01 T01331032  RH  032%=      5-min Rain = 0
KPD2 201844Z 26005KT 13/M03 A3013 RMK A01 T01331032  RH  032%=      5-min Rain = 0
KPD2 201845Z 25007KT 13/M03 A3012 RMK A01 T01331032  RH  032%=      5-min Rain = 0
KPD2 201846Z 25003KT 13/M03 A3012 RMK A01 T01341032  RH  031%=      5-min Rain = 0
KPD2 201847Z 28005KT 13/M03 A3012 RMK A01 T01341032  RH  031%=      5-min Rain = 0
KPD2 201848Z 26007KT 13/M03 A3012 RMK A01 T01341033  RH  031%=      5-min Rain = 0
KPD2 201849Z 27007KT 14/M03 A3012 RMK A01 T01351032  RH  031%=      5-min Rain = 0
KPD2 201850Z 26007KT 14/M03 A3012 RMK A01 T01351033  RH  031%=      5-min Rain = 0
KPD2 201851Z 25008KT 14/M03 A3012 RMK A01 T01361032  RH  031%=      5-min Rain = 0
KPD2 201852Z 25004KT 14/M03 A3012 RMK A01 T01361033  RH  031%=      5-min Rain = 0
KPD2 201853Z 24006G11KT 14/M03 A3012 RMK A01 T01361032  RH  031%=      5-min Rain = 0
KPD2 201854Z 24010KT 14/M03 A3012 RMK A01 T01371033  RH  031%=      5-min Rain = 0
KPD2 201855Z 24009KT 14/M04 A3012 RMK A01 T01351036  RH  030%=      5-min Rain = 0
KPD2 201856Z 23008KT 13/M04 A3012 RMK A01 T01331036  RH  031%=      5-min Rain = 0
KPD2 201857Z 23007KT 13/M03 A3012 RMK A01 T01331034  RH  031%=      5-min Rain = 0
KPD2 201858Z 23007G12KT 13/M03 A3012 RMK A01 T01321033  RH  031%=      5-min Rain = 0
KPD2 201859Z 23006KT 13/M03 A3012 RMK A01 T01331032  RH  032%=      5-min Rain = 0
KPD2 201900Z 24006KT 13/M03 A3011 RMK A01 T01331033  RH  032%=      5-min Rain = 0
KPD2 201901Z 26003KT 13/M03 A3011 RMK A01 T01341032  RH  031%=      5-min Rain = 0
KPD2 201902Z 25003KT 13/M03 A3011 RMK A01 T01341033  RH  031%=      5-min Rain = 0
KPD2 201903Z 24004G9KT 13/M03 A3011 RMK A01 T01341032  RH  031%=      5-min Rain = 0
KPD2 201904Z 23002KT 14/M03 A3011 RMK A01 T01351030  RH  032%=      5-min Rain = 0
KPD2 201905Z 24005KT 14/M03 A3011 RMK A01 T01361032  RH  031%=      5-min Rain = 0
KPD2 201906Z 22006KT 14/M03 A3011 RMK A01 T01361031  RH  031%=      5-min Rain = 0
KPD2 201907Z 22006KT 14/M03 A3011 RMK A01 T01371029  RH  031%=      5-min Rain = 0
KPD2 201908Z 21002KT 14/M03 A301 RMK A01 T01391028  RH  031%=      5-min Rain = 0
KPD2 201909Z 22005G10KT 14/M03 A301 RMK A01 T01411028  RH  031%=      5-min Rain = 0
KPD2 201910Z 20002KT 14/M03 A301 RMK A01 T01411030  RH  031%=      5-min Rain = 0
KPD2 201911Z 20006KT 14/M03 A301 RMK A01 T01411030  RH  031%=      5-min Rain = 0
KPD2 201912Z 19005KT 14/M03 A301 RMK A01 T01411028  RH  031%=      5-min Rain = 0
KPD2 201913Z 25005KT 14/M03 A301 RMK A01 T01411026  RH  031%=      5-min Rain = 0
KPD2 201914Z 25004KT 14/M03 A301 RMK A01 T01441025  RH  031%=      5-min Rain = 0
KPD2 201915Z 26001KT 14/M03 A301 RMK A01 T01441028  RH  030%=      5-min Rain = 0
KPD2 201916Z 24002KT 14/M03 A301 RMK A01 T01441028  RH  030%=      5-min Rain = 0
KPD2 201917Z 22002KT 15/M03 A301 RMK A01 T01451025  RH  031%=      5-min Rain = 0
KPD2 201918Z 20004KT 15/M03 A301 RMK A01 T01471025  RH  031%=      5-min Rain = 0
KPD2 201919Z 24006KT 15/M03 A301 RMK A01 T01491025  RH  030%=      5-min Rain = 0
KPD2 201920Z 23005KT 15/M02 A301 RMK A01 T01521024  RH  030%=      5-min Rain = 0
KPD2 201921Z 24008G13KT 15/M03 A301 RMK A01 T01531026  RH  029%=      5-min Rain = 0
KPD2 201922Z 22006KT 15/M03 A301 RMK A01 T01531025  RH  029%=      5-min Rain = 0
KPD2 201923Z 22010KT 15/M03 A301 RMK A01 T01541026  RH  029%=      5-min Rain = 0
KPD2 201924Z 21009KT 15/M03 A301 RMK A01 T01521029  RH  029%=      5-min Rain = 0
KPD2 201925Z 21005KT 15/M03 A301 RMK A01 T01501029  RH  029%=      5-min Rain = 0
KPD2 201926Z 20004KT 15/M03 A301 RMK A01 T01491030  RH  029%=      5-min Rain = 0
KPD2 201927Z 20005KT 15/M03 A301 RMK A01 T01481029  RH  029%=      5-min Rain = 0
KPD2 201928Z 22002KT 15/M03 A301 RMK A01 T01481029  RH  029%=      5-min Rain = 0
KPD2 201929Z 29004KT 15/M03 A301 RMK A01 T01481029  RH  029%=      5-min Rain = 0
KPD2 201930Z 26004KT 15/M03 A301 RMK A01 T01501027  RH  030%=      5-min Rain = 0
KPD2 201931Z 23002KT 15/M03 A301 RMK A01 T01531025  RH  029%=      5-min Rain = 0
KPD2 201932Z 21005KT 16/M02 A301 RMK A01 T01561024  RH  029%=      5-min Rain = 0
KPD2 201933Z 19005KT 16/M03 A301 RMK A01 T01571028  RH  028%=      5-min Rain = 0
KPD2 201934Z 22004KT 16/M03 A301 RMK A01 T01561027  RH  028%=      5-min Rain = 0
KPD2 201935Z 20006KT 16/M03 A3009 RMK A01 T01551027  RH  029%=      5-min Rain = 0
KPD2 201936Z 22005KT 15/M03 A3009 RMK A01 T01541027  RH  029%=      5-min Rain = 0
KPD2 201937Z 24002KT 15/M03 A3009 RMK A01 T01541027  RH  029%=      5-min Rain = 0
KPD2 201938Z 31002KT 15/M03 A3009 RMK A01 T01531030  RH  028%=      5-min Rain = 0
KPD2 201939Z 21002KT 15/M03 A3009 RMK A01 T01531029  RH  029%=      5-min Rain = 0
KPD2 201940Z 24005KT 15/M03 A3009 RMK A01 T01531027  RH  029%=      5-min Rain = 0
KPD2 201941Z 21007KT 15/M03 A3009 RMK A01 T01521029  RH  029%=      5-min Rain = 0
KPD2 201942Z 21006KT 15/M03 A3009 RMK A01 T01501031  RH  029%=      5-min Rain = 0
KPD2 201943Z 22006KT 15/M03 A3009 RMK A01 T01491028  RH  029%=      5-min Rain = 0
KPD2 201944Z 22001KT 15/M03 A3009 RMK A01 T01491027  RH  029%=      5-min Rain = 0
KPD2 201945Z 22005KT 15/M03 A3009 RMK A01 T01501028  RH  029%=      5-min Rain = 0
KPD2 201946Z 20003KT 15/M03 A3009 RMK A01 T01511029  RH  029%=      5-min Rain = 0
KPD2 201947Z 26004KT 15/M03 A3009 RMK A01 T01501028  RH  029%=      5-min Rain = 0
KPD2 201948Z 23004KT 15/M03 A3009 RMK A01 T01511026  RH  029%=      5-min Rain = 0
KPD2 201949Z 23005KT 15/M03 A3009 RMK A01 T01541025  RH  029%=      5-min Rain = 0
KPD2 201950Z 21005KT 16/M03 A3009 RMK A01 T01571025  RH  029%=      5-min Rain = 0
KPD2 201951Z 21004KT 16/M03 A3009 RMK A01 T01581027  RH  028%=      5-min Rain = 0
KPD2 201952Z 25004KT 16/M03 A3009 RMK A01 T01591025  RH  028%=      5-min Rain = 0
KPD2 201953Z 22006KT 16/M03 A3008 RMK A01 T01601027  RH  028%=      5-min Rain = 0
KPD2 201954Z 21003KT 16/M03 A3008 RMK A01 T01591027  RH  028%=      5-min Rain = 0
KPD2 201955Z 22004KT 16/M03 A3008 RMK A01 T01581027  RH  028%=      5-min Rain = 0
KPD2 201956Z 23005KT 16/M03 A3008 RMK A01 T01571027  RH  028%=      5-min Rain = 0
KPD2 201957Z 24003KT 16/M03 A3008 RMK A01 T01561025  RH  029%=      5-min Rain = 0
KPD2 201958Z 23005KT 16/M03 A3008 RMK A01 T01561025  RH  029%=      5-min Rain = 0
KPD2 201959Z 20005KT 15/M03 A3008 RMK A01 T01541027  RH  029%=      5-min Rain = 0
KPD2 202000Z 20005KT 15/M03 A3008 RMK A01 T01531027  RH  029%=      5-min Rain = 0
KPD2 202001Z 21007KT 15/M03 A3008 RMK A01 T01511026  RH  029%=      5-min Rain = 0
KPD2 202002Z 20006KT 15/M03 A3008 RMK A01 T01501028  RH  029%=      5-min Rain = 0
KPD2 202003Z 21003KT 15/M03 A3008 RMK A01 T01491028  RH  029%=      5-min Rain = 0
KPD2 202004Z 21004KT 15/M03 A3007 RMK A01 T01481027  RH  030%=      5-min Rain = 0
KPD2 202005Z 21005KT 15/M03 A3007 RMK A01 T01491026  RH  030%=      5-min Rain = 0
KPD2 202006Z 21003KT 15/M03 A3007 RMK A01 T01491028  RH  029%=      5-min Rain = 0
KPD2 202007Z 16003KT 15/M03 A3007 RMK A01 T01491026  RH  030%=      5-min Rain = 0
KPD2 202008Z 27001KT 15/M03 A3007 RMK A01 T01511025  RH  030%=      5-min Rain = 0
KPD2 202009Z 28003KT 15/M03 A3007 RMK A01 T01531025  RH  029%=      5-min Rain = 0
KPD2 202010Z 25003KT 16/M02 A3007 RMK A01 T01551023  RH  029%=      5-min Rain = 0
KPD2 202011Z 21003KT 16/M02 A3007 RMK A01 T01591022  RH  029%=      5-min Rain = 0
KPD2 202012Z 28002KT 16/M02 A3007 RMK A01 T01611023  RH  028%=      5-min Rain = 0
KPD2 202013Z 28004KT 16/M02 A3007 RMK A01 T01621023  RH  028%=      5-min Rain = 0
KPD2 202014Z 31005KT 16/M02 A3007 RMK A01 T01631024  RH  028%=      5-min Rain = 0
KPD2 202015Z 29006KT 16/M02 A3007 RMK A01 T01641024  RH  028%=      5-min Rain = 0
KPD2 202016Z 27005KT 16/M02 A3007 RMK A01 T01631024  RH  028%=      5-min Rain = 0
KPD2 202017Z 24003KT 16/M02 A3007 RMK A01 T01641024  RH  028%=      5-min Rain = 0
KPD2 202018Z 17004KT 17/M02 A3007 RMK A01 T01651024  RH  027%=      5-min Rain = 0
KPD2 202019Z 19004KT 16/M03 A3007 RMK A01 T01631027  RH  027%=      5-min Rain = 0
KPD2 202020Z 24005KT 16/M03 A3007 RMK A01 T01621025  RH  028%=      5-min Rain = 0
KPD2 202021Z 26004KT 16/M02 A3007 RMK A01 T01631024  RH  028%=      5-min Rain = 0
KPD2 202022Z 21004KT 17/M02 A3006 RMK A01 T01661023  RH  028%=      5-min Rain = 0
KPD2 202023Z 27006G11KT 17/M02 A3006 RMK A01 T01691022  RH  027%=      5-min Rain = 0
KPD2 202024Z 23007KT 17/M02 A3007 RMK A01 T01701023  RH  027%=      5-min Rain = 0
KPD2 202025Z 22005KT 17/M02 A3006 RMK A01 T01701024  RH  026%=      5-min Rain = 0
KPD2 202026Z 25007KT 17/M02 A3006 RMK A01 T01721022  RH  027%=      5-min Rain = 0
KPD2 202027Z 24007KT 17/M03 A3006 RMK A01 T01731025  RH  026%=      5-min Rain = 0
KPD2 202028Z 23008KT 17/M03 A3006 RMK A01 T01721027  RH  026%=      5-min Rain = 0
KPD2 202029Z 23010G15KT 17/M03 A3006 RMK A01 T01721026  RH  026%=      5-min Rain = 0
KPD2 202030Z 23008G13KT 17/M03 A3006 RMK A01 T01711027  RH  026%=      5-min Rain = 0
KPD2 202031Z 26005G12KT 17/M03 A3006 RMK A01 T01701027  RH  026%=      5-min Rain = 0
KPD2 202032Z 24007G13KT 17/M03 A3006 RMK A01 T01691027  RH  026%=      5-min Rain = 0
KPD2 202033Z 23002KT 17/M03 A3006 RMK A01 T01711025  RH  026%=      5-min Rain = 0
KPD2 202034Z 24005KT 17/M03 A3006 RMK A01 T01731025  RH  026%=      5-min Rain = 0
KPD2 202035Z 20005KT 17/M03 A3006 RMK A01 T01731027  RH  025%=      5-min Rain = 0
KPD2 202036Z 22003KT 17/M03 A3006 RMK A01 T01721027  RH  026%=      5-min Rain = 0
KPD2 202037Z 26004KT 17/M03 A3006 RMK A01 T01711027  RH  026%=      5-min Rain = 0
KPD2 202038Z 26007KT 17/M03 A3006 RMK A01 T01701027  RH  026%=      5-min Rain = 0
KPD2 202039Z 26004KT 17/M03 A3006 RMK A01 T01701029  RH  026%=      5-min Rain = 0
KPD2 202040Z 20009KT 17/M03 A3005 RMK A01 T01691028  RH  026%=      5-min Rain = 0
KPD2 202041Z 21008KT 17/M03 A3005 RMK A01 T01681026  RH  026%=      5-min Rain = 0
KPD2 202042Z 21008KT 17/M03 A3005 RMK A01 T01671025  RH  027%=      5-min Rain = 0
KPD2 202043Z 20006KT 17/M03 A3005 RMK A01 T01661026  RH  027%=      5-min Rain = 0
KPD2 202044Z 22005KT 17/M03 A3005 RMK A01 T01651025  RH  027%=      5-min Rain = 0
KPD2 202045Z 22004KT 17/M03 A3005 RMK A01 T01661026  RH  027%=      5-min Rain = 0
KPD2 202046Z 24003KT 17/M02 A3005 RMK A01 T01671024  RH  027%=      5-min Rain = 0
KPD2 202047Z 25005KT 17/M03 A3005 RMK A01 T01691025  RH  027%=      5-min Rain = 0
KPD2 202048Z 28005KT 17/M03 A3005 RMK A01 T01691026  RH  026%=      5-min Rain = 0
KPD2 202049Z 26006KT 17/M03 A3005 RMK A01 T01671025  RH  027%=      5-min Rain = 0
KPD2 202050Z 26007KT 17/M03 A3005 RMK A01 T01671026  RH  027%=      5-min Rain = 0
KPD2 202051Z 25008KT 17/M03 A3005 RMK A01 T01661026  RH  027%=      5-min Rain = 0
KPD2 202052Z 27007KT 16/M03 A3005 RMK A01 T01641028  RH  027%=      5-min Rain = 0
KPD2 202053Z 24007G12KT 16/M03 A3005 RMK A01 T01621029  RH  027%=      5-min Rain = 0
KPD2 202054Z 22001KT 16/M03 A3005 RMK A01 T01611028  RH  027%=      5-min Rain = 0
KPD2 202055Z 26004KT 16/M03 A3005 RMK A01 T01601027  RH  027%=      5-min Rain = 0
KPD2 202056Z 24007KT 16/M03 A3005 RMK A01 T01601027  RH  027%=      5-min Rain = 0
KPD2 202057Z 25004KT 16/M03 A3005 RMK A01 T01601026  RH  028%=      5-min Rain = 0
KPD2 202058Z 26006KT 16/M03 A3005 RMK A01 T01601026  RH  028%=      5-min Rain = 0
KPD2 202059Z 23007KT 16/M03 A3005 RMK A01 T01601028  RH  027%=      5-min Rain = 0
KPD2 202100Z 20006KT 16/M03 A3005 RMK A01 T01591028  RH  028%=      5-min Rain = 0
KPD2 202101Z 19005KT 16/M03 A3005 RMK A01 T01591027  RH  028%=      5-min Rain = 0
KPD2 202102Z 20003KT 16/M03 A3005 RMK A01 T01601026  RH  028%=      5-min Rain = 0
KPD2 202103Z 22002KT 16/M03 A3005 RMK A01 T01611025  RH  028%=      5-min Rain = 0
KPD2 202104Z 24005KT 16/M02 A3005 RMK A01 T01641024  RH  028%=      5-min Rain = 0
KPD2 202105Z 24007KT 17/M03 A3005 RMK A01 T01651027  RH  027%=      5-min Rain = 0
KPD2 202106Z 23005KT 16/M03 A3005 RMK A01 T01641028  RH  027%=      5-min Rain = 0
KPD2 202107Z 21002KT 16/M03 A3005 RMK A01 T01641027  RH  027%=      5-min Rain = 0
KPD2 202108Z 26003KT 17/M03 A3005 RMK A01 T01651026  RH  027%=      5-min Rain = 0
KPD2 202109Z 27004KT 17/M03 A3005 RMK A01 T01661028  RH  026%=      5-min Rain = 0
KPD2 202110Z 23003KT 17/M03 A3005 RMK A01 T01661027  RH  027%=      5-min Rain = 0
KPD2 202111Z 20002KT 17/M03 A3005 RMK A01 T01671025  RH  027%=      5-min Rain = 0
KPD2 202112Z 20001KT 17/M03 A3005 RMK A01 T01691027  RH  026%=      5-min Rain = 0
KPD2 202113Z 19004KT 17/M03 A3005 RMK A01 T01681027  RH  026%=      5-min Rain = 0
KPD2 202114Z 22005KT 17/M03 A3005 RMK A01 T01671026  RH  027%=      5-min Rain = 0
KPD2 202115Z 29002KT 17/M02 A3005 RMK A01 T01671024  RH  027%=      5-min Rain = 0
KPD2 202116Z 29002KT 17/M02 A3005 RMK A01 T01691024  RH  027%=      5-min Rain = 0
KPD2 202117Z 26004G9KT 17/M03 A3005 RMK A01 T01701025  RH  026%=      5-min Rain = 0
KPD2 202118Z 25006KT 17/M03 A3004 RMK A01 T01701026  RH  026%=      5-min Rain = 0
KPD2 202119Z 24005KT 17/M03 A3004 RMK A01 T01691029  RH  026%=      5-min Rain = 0
KPD2 202120Z 25008KT 17/M03 A3004 RMK A01 T01681027  RH  026%=      5-min Rain = 0
KPD2 202121Z 23004G10KT 17/M03 A3004 RMK A01 T01691029  RH  026%=      5-min Rain = 0
KPD2 202122Z 24005KT 17/M03 A3004 RMK A01 T01691029  RH  026%=      5-min Rain = 0
KPD2 202123Z 22003KT 17/M03 A3004 RMK A01 T01681030  RH  026%=      5-min Rain = 0
KPD2 202124Z 23003KT 17/M03 A3004 RMK A01 T01681028  RH  026%=      5-min Rain = 0
KPD2 202125Z 26003KT 17/M03 A3004 RMK A01 T01691028  RH  026%=      5-min Rain = 0
KPD2 202126Z 26004KT 17/M03 A3004 RMK A01 T01711027  RH  026%=      5-min Rain = 0
KPD2 202127Z 23004KT 17/M03 A3004 RMK A01 T01711027  RH  026%=      5-min Rain = 0
KPD2 202128Z 25005KT 17/M03 A3004 RMK A01 T01721026  RH  026%=      5-min Rain = 0
KPD2 202129Z 27006KT 17/M03 A3004 RMK A01 T01721028  RH  025%=      5-min Rain = 0
KPD2 202130Z 28005KT 17/M03 A3004 RMK A01 T01721028  RH  025%=      5-min Rain = 0
KPD2 202131Z 29004KT 17/M03 A3004 RMK A01 T01711028  RH  026%=      5-min Rain = 0
KPD2 202132Z 27004KT 17/M03 A3004 RMK A01 T01711026  RH  026%=      5-min Rain = 0
KPD2 202133Z 26003KT 17/M03 A3004 RMK A01 T01721027  RH  026%=      5-min Rain = 0
KPD2 202134Z 25007KT 17/M03 A3004 RMK A01 T01721027  RH  026%=      5-min Rain = 0
KPD2 202135Z 27002KT 17/M03 A3004 RMK A01 T01731027  RH  025%=      5-min Rain = 0
KPD2 202136Z 25003KT 17/M03 A3004 RMK A01 T01731027  RH  025%=      5-min Rain = 0
KPD2 202137Z 24003KT 17/M03 A3004 RMK A01 T01731027  RH  025%=      5-min Rain = 0
KPD2 202138Z 27003KT 17/M03 A3003 RMK A01 T01731027  RH  025%=      5-min Rain = 0
KPD2 202139Z 24002KT 18/M02 A3003 RMK A01 T01751024  RH  026%=      5-min Rain = 0
KPD2 202140Z 16002KT 18/M03 A3003 RMK A01 T01761026  RH  025%=      5-min Rain = 0
KPD2 202141Z 22002KT 18/M03 A3003 RMK A01 T01761025  RH  025%=      5-min Rain = 0
KPD2 202142Z 23003KT 18/M03 A3003 RMK A01 T01751025  RH  025%=      5-min Rain = 0
KPD2 202143Z 25002KT 17/M03 A3003 RMK A01 T01741026  RH  025%=      5-min Rain = 0
KPD2 202144Z 26003KT 17/M03 A3003 RMK A01 T01731028  RH  025%=      5-min Rain = 0
KPD2 202145Z 28003KT 17/M03 A3003 RMK A01 T01721029  RH  025%=      5-min Rain = 0
KPD2 202146Z 25001KT 17/M03 A3003 RMK A01 T01711027  RH  026%=      5-min Rain = 0
KPD2 202147Z 21003KT 17/M03 A3003 RMK A01 T01721025  RH  026%=      5-min Rain = 0
KPD2 202148Z 19006KT 17/M03 A3003 RMK A01 T01741025  RH  026%=      5-min Rain = 0
KPD2 202149Z 17004KT 17/M03 A3003 RMK A01 T01731026  RH  026%=      5-min Rain = 0
KPD2 202150Z 16004KT 17/M03 A3003 RMK A01 T01731025  RH  026%=      5-min Rain = 0
KPD2 202151Z 18003KT 17/M03 A3003 RMK A01 T01721026  RH  026%=      5-min Rain = 0
KPD2 202152Z 19006KT 17/M03 A3003 RMK A01 T01711026  RH  026%=      5-min Rain = 0
KPD2 202153Z 20004KT 17/M03 A3003 RMK A01 T01701025  RH  026%=      5-min Rain = 0
KPD2 202154Z 20005KT 17/M03 A3003 RMK A01 T01691026  RH  026%=      5-min Rain = 0
KPD2 202155Z 21006KT 17/M03 A3003 RMK A01 T01671026  RH  027%=      5-min Rain = 0
KPD2 202156Z 21005KT 17/M03 A3003 RMK A01 T01651027  RH  027%=      5-min Rain = 0
KPD2 202157Z 18005KT 16/M03 A3003 RMK A01 T01641027  RH  027%=      5-min Rain = 0
KPD2 202158Z 17005KT 16/M03 A3003 RMK A01 T01641027  RH  027%=      5-min Rain = 0
KPD2 202159Z 17004KT 16/M03 A3003 RMK A01 T01641026  RH  027%=      5-min Rain = 0
KPD2 202200Z 16004KT 17/M03 A3003 RMK A01 T01651025  RH  027%=      5-min Rain = 0
KPD2 202201Z 18004KT 17/M02 A3003 RMK A01 T01671023  RH  027%=      5-min Rain = 0
KPD2 202202Z 18003KT 17/M02 A3003 RMK A01 T01691023  RH  027%=      5-min Rain = 0
KPD2 202203Z 22001KT 17/M03 A3003 RMK A01 T01691026  RH  026%=      5-min Rain = 0
KPD2 202204Z 23002KT 17/M03 A3003 RMK A01 T01701025  RH  026%=      5-min Rain = 0
KPD2 202205Z 22003KT 17/M02 A3003 RMK A01 T01721024  RH  026%=      5-min Rain = 0
KPD2 202206Z 22002KT 17/M03 A3003 RMK A01 T01731025  RH  026%=      5-min Rain = 0
KPD2 202207Z 22003KT 17/M03 A3003 RMK A01 T01741025  RH  026%=      5-min Rain = 0
KPD2 202208Z 21002KT 17/M02 A3003 RMK A01 T01741024  RH  026%=      5-min Rain = 0
KPD2 202209Z 18002KT 17/M02 A3003 RMK A01 T01741024  RH  026%=      5-min Rain = 0
KPD2 202210Z 16002KT 17/M02 A3003 RMK A01 T01731023  RH  026%=      5-min Rain = 0
KPD2 202211Z 17004KT 17/M02 A3003 RMK A01 T01731024  RH  026%=      5-min Rain = 0
KPD2 202212Z 14004KT 17/M02 A3002 RMK A01 T01721024  RH  026%=      5-min Rain = 0
KPD2 202213Z 17005KT 17/M02 A3002 RMK A01 T01711023  RH  026%=      5-min Rain = 0
KPD2 202214Z 20003KT 17/M02 A3002 RMK A01 T01711024  RH  026%=      5-min Rain = 0
KPD2 202215Z 18003KT 17/M03 A3002 RMK A01 T01701025  RH  026%=      5-min Rain = 0
KPD2 202216Z 20005KT 17/M03 A3002 RMK A01 T01701025  RH  026%=      5-min Rain = 0
KPD2 202217Z 21008KT 17/M03 A3003 RMK A01 T01691026  RH  026%=      5-min Rain = 0
KPD2 202218Z 20007KT 17/M03 A3003 RMK A01 T01681028  RH  026%=      5-min Rain = 0
KPD2 202219Z 21005KT 17/M03 A3003 RMK A01 T01681029  RH  026%=      5-min Rain = 0
KPD2 202220Z 22008KT 17/M03 A3003 RMK A01 T01681028  RH  026%=      5-min Rain = 0
KPD2 202221Z 23004KT 17/M03 A3003 RMK A01 T01681029  RH  026%=      5-min Rain = 0
KPD2 202222Z 21003KT 17/M03 A3003 RMK A01 T01681028  RH  026%=      5-min Rain = 0
KPD2 202223Z 21005KT 17/M03 A3003 RMK A01 T01681027  RH  026%=      5-min Rain = 0
KPD2 202224Z 19008KT 17/M03 A3003 RMK A01 T01681027  RH  026%=      5-min Rain = 0
KPD2 202225Z 20007KT 17/M03 A3003 RMK A01 T01691029  RH  026%=      5-min Rain = 0
KPD2 202226Z 18006KT 17/M03 A3003 RMK A01 T01681030  RH  026%=      5-min Rain = 0
KPD2 202227Z 19005KT 17/M03 A3003 RMK A01 T01681028  RH  026%=      5-min Rain = 0
KPD2 202228Z 18005KT 17/M03 A3003 RMK A01 T01671029  RH  026%=      5-min Rain = 0
KPD2 202229Z 20005KT 17/M03 A3003 RMK A01 T01671030  RH  026%=      5-min Rain = 0
KPD2 202230Z 20006KT 17/M03 A3003 RMK A01 T01671030  RH  026%=      5-min Rain = 0
KPD2 202231Z 19005KT 17/M03 A3003 RMK A01 T01681031  RH  025%=      5-min Rain = 0
KPD2 202232Z 19004KT 17/M03 A3003 RMK A01 T01691030  RH  026%=      5-min Rain = 0
KPD2 202233Z 18004KT 17/M03 A3003 RMK A01 T01701031  RH  025%=      5-min Rain = 0
KPD2 202234Z 19006KT 17/M03 A3003 RMK A01 T01701031  RH  025%=      5-min Rain = 0
KPD2 202235Z 19007KT 17/M03 A3003 RMK A01 T01711031  RH  025%=      5-min Rain = 0
KPD2 202236Z 20006KT 17/M03 A3003 RMK A01 T01711032  RH  025%=      5-min Rain = 0
KPD2 202237Z 21006KT 17/M03 A3003 RMK A01 T01701032  RH  025%=      5-min Rain = 0
KPD2 202238Z 18004KT 17/M03 A3003 RMK A01 T01701031  RH  025%=      5-min Rain = 0
KPD2 202239Z 20004KT 17/M03 A3003 RMK A01 T01701031  RH  025%=      5-min Rain = 0
KPD2 202240Z 20004KT 17/M03 A3003 RMK A01 T01701030  RH  025%=      5-min Rain = 0
KPD2 202241Z 18003KT 17/M03 A3003 RMK A01 T01701030  RH  025%=      5-min Rain = 0
KPD2 202242Z 20004KT 17/M03 A3003 RMK A01 T01701030  RH  025%=      5-min Rain = 0
KPD2 202243Z 19005KT 17/M03 A3003 RMK A01 T01691031  RH  025%=      5-min Rain = 0
KPD2 202244Z 18007KT 17/M03 A3003 RMK A01 T01681031  RH  025%=      5-min Rain = 0
KPD2 202245Z 18006KT 17/M03 A3003 RMK A01 T01671032  RH  025%=      5-min Rain = 0
KPD2 202246Z 19005KT 17/M03 A3003 RMK A01 T01661032  RH  026%=      5-min Rain = 0
KPD2 202247Z 19005KT 17/M03 A3003 RMK A01 T01661031  RH  026%=      5-min Rain = 0
KPD2 202248Z 20003KT 17/M03 A3003 RMK A01 T01651031  RH  026%=      5-min Rain = 0
KPD2 202249Z 20005G10KT 17/M03 A3003 RMK A01 T01651031  RH  026%=      5-min Rain = 0
KPD2 202250Z 21006KT 17/M03 A3003 RMK A01 T01661030  RH  026%=      5-min Rain = 0
KPD2 202251Z 20004KT 17/M03 A3003 RMK A01 T01661031  RH  026%=      5-min Rain = 0
KPD2 202252Z 18005KT 17/M03 A3003 RMK A01 T01661031  RH  026%=      5-min Rain = 0
KPD2 202253Z 19005KT 17/M03 A3003 RMK A01 T01651030  RH  026%=      5-min Rain = 0
KPD2 202254Z 20005KT 17/M03 A3003 RMK A01 T01651030  RH  026%=      5-min Rain = 0
KPD2 202255Z 20006KT 17/M03 A3003 RMK A01 T01651030  RH  026%=      5-min Rain = 0
KPD2 202256Z 19005KT 16/M03 A3003 RMK A01 T01641030  RH  026%=      5-min Rain = 0
KPD2 202257Z 21004KT 17/M03 A3003 RMK A01 T01651029  RH  026%=      5-min Rain = 0
KPD2 202258Z 20003KT 16/M03 A3003 RMK A01 T01641030  RH  026%=      5-min Rain = 0
KPD2 202259Z 22004KT 16/M03 A3003 RMK A01 T01641030  RH  026%=      5-min Rain = 0
KPD2 202300Z 22006KT 16/M03 A3003 RMK A01 T01641030  RH  026%=      5-min Rain = 0
KPD2 202301Z 22005KT 16/M03 A3003 RMK A01 T01641030  RH  026%=      5-min Rain = 0
KPD2 202302Z 22003KT 16/M03 A3002 RMK A01 T01641030  RH  026%=      5-min Rain = 0
KPD2 202303Z 20005KT 16/M03 A3002 RMK A01 T01641030  RH  026%=      5-min Rain = 0
KPD2 202304Z 18003KT 16/M03 A3002 RMK A01 T01641031  RH  026%=      5-min Rain = 0
KPD2 202305Z 19004KT 16/M03 A3002 RMK A01 T01641031  RH  026%=      5-min Rain = 0
KPD2 202306Z 21002KT 17/M03 A3002 RMK A01 T01651030  RH  026%=      5-min Rain = 0
KPD2 202307Z 22002KT 16/M03 A3002 RMK A01 T01641030  RH  026%=      5-min Rain = 0
KPD2 202308Z 21001KT 16/M03 A3002 RMK A01 T01641030  RH  026%=      5-min Rain = 0
KPD2 202309Z 17001KT 17/M03 A3002 RMK A01 T01651030  RH  026%=      5-min Rain = 0
KPD2 202310Z 16001KT 16/M03 A3002 RMK A01 T01641030  RH  026%=      5-min Rain = 0
KPD2 202311Z 16003KT 17/M03 A3002 RMK A01 T01651028  RH  026%=      5-min Rain = 0
KPD2 202312Z 18003KT 17/M03 A3002 RMK A01 T01651029  RH  026%=      5-min Rain = 0
KPD2 202313Z 18004KT 17/M03 A3002 RMK A01 T01651030  RH  026%=      5-min Rain = 0
KPD2 202314Z 20002KT 16/M03 A3002 RMK A01 T01641030  RH  026%=      5-min Rain = 0
KPD2 202315Z 20003KT 16/M03 A3002 RMK A01 T01641029  RH  027%=      5-min Rain = 0
KPD2 202316Z 19003KT 16/M03 A3002 RMK A01 T01641028  RH  027%=      5-min Rain = 0
KPD2 202317Z 22003KT 16/M03 A3002 RMK A01 T01641028  RH  027%=      5-min Rain = 0
KPD2 202318Z 20002KT 16/M03 A3002 RMK A01 T01641029  RH  026%=      5-min Rain = 0
KPD2 202319Z 17002KT 17/M03 A3002 RMK A01 T01651028  RH  026%=      5-min Rain = 0
KPD2 202320Z 16002KT 17/M03 A3002 RMK A01 T01651028  RH  026%=      5-min Rain = 0
KPD2 202321Z 19002KT 16/M03 A3002 RMK A01 T01641028  RH  027%=      5-min Rain = 0
KPD2 202322Z 15002KT 16/M03 A3002 RMK A01 T01641029  RH  027%=      5-min Rain = 0
KPD2 202323Z 16002KT 16/M03 A3001 RMK A01 T01631028  RH  027%=      5-min Rain = 0
KPD2 202324Z 18003KT 16/M03 A3001 RMK A01 T01621029  RH  027%=      5-min Rain = 0
KPD2 202325Z 16002KT 16/M03 A3001 RMK A01 T01621029  RH  027%=      5-min Rain = 0
KPD2 202326Z 14001KT 16/M03 A3001 RMK A01 T01611029  RH  027%=      5-min Rain = 0
KPD2 202327Z 14002KT 16/M03 A3001 RMK A01 T01601029  RH  027%=      5-min Rain = 0
KPD2 202328Z 17002KT 16/M03 A3001 RMK A01 T01601028  RH  027%=      5-min Rain = 0
KPD2 202329Z 13002KT 16/M03 A3001 RMK A01 T01601028  RH  027%=      5-min Rain = 0
KPD2 202330Z 12002KT 16/M03 A3001 RMK A01 T01591029  RH  027%=      5-min Rain = 0
KPD2 202331Z 11002KT 16/M03 A3001 RMK A01 T01581029  RH  027%=      5-min Rain = 0
KPD2 202332Z 12001KT 16/M03 A3001 RMK A01 T01581029  RH  028%=      5-min Rain = 0
KPD2 202333Z 15002KT 16/M03 A3001 RMK A01 T01571029  RH  028%=      5-min Rain = 0
KPD2 202334Z 15002KT 16/M03 A3001 RMK A01 T01561027  RH  028%=      5-min Rain = 0
KPD2 202335Z 17002KT 16/M03 A3001 RMK A01 T01551026  RH  029%=      5-min Rain = 0
KPD2 202336Z 16002KT 15/M02 A3001 RMK A01 T01531024  RH  029%=      5-min Rain = 0
KPD2 202337Z 14003KT 15/M02 A3001 RMK A01 T01521023  RH  030%=      5-min Rain = 0
KPD2 202338Z 13002KT 15/M02 A3001 RMK A01 T01491023  RH  030%=      5-min Rain = 0
KPD2 202339Z 12003KT 15/M02 A3001 RMK A01 T01481023  RH  031%=      5-min Rain = 0
KPD2 202340Z 12002KT 15/M02 A3001 RMK A01 T01461024  RH  031%=      5-min Rain = 0
KPD2 202341Z 12003KT 15/M02 A3001 RMK A01 T01451024  RH  031%=      5-min Rain = 0
KPD2 202342Z 12003KT 14/M03 A3001 RMK A01 T01441025  RH  031%=      5-min Rain = 0
KPD2 202343Z 12003KT 14/M03 A3001 RMK A01 T01441025  RH  031%=      5-min Rain = 0
KPD2 202344Z 12003KT 14/M03 A3001 RMK A01 T01431025  RH  031%=      5-min Rain = 0
KPD2 202345Z 19002KT 14/M02 A3001 RMK A01 T01421023  RH  032%=      5-min Rain = 0
KPD2 202346Z 17002KT 14/M02 A3001 RMK A01 T01401022  RH  033%=      5-min Rain = 0
KPD2 202347Z 17003KT 14/M02 A3001 RMK A01 T01391023  RH  033%=      5-min Rain = 0
KPD2 202348Z 16002KT 14/M02 A3001 RMK A01 T01391023  RH  033%=      5-min Rain = 0
KPD2 202349Z 14002KT 14/M02 A3001 RMK A01 T01381022  RH  033%=      5-min Rain = 0
KPD2 202350Z 14002KT 14/M02 A3001 RMK A01 T01371022  RH  033%=      5-min Rain = 0
KPD2 202351Z 15002KT 14/M02 A3001 RMK A01 T01361022  RH  033%=      5-min Rain = 0
KPD2 202352Z 14002KT 14/M02 A3001 RMK A01 T01351022  RH  034%=      5-min Rain = 0
KPD2 202353Z 14002KT 13/M02 A3001 RMK A01 T01341023  RH  034%=      5-min Rain = 0
KPD2 202354Z 14002KT 13/M02 A3001 RMK A01 T01341023  RH  034%=      5-min Rain = 0
KPD2 202355Z 16003KT 13/M02 A3001 RMK A01 T01341023  RH  034%=      5-min Rain = 0
KPD2 202356Z 15002KT 13/M02 A3001 RMK A01 T01341022  RH  034%=      5-min Rain = 0
KPD2 202357Z 13002KT 13/M02 A3001 RMK A01 T01331022  RH  034%=      5-min Rain = 0
KPD2 202358Z 13002KT 13/M02 A3001 RMK A01 T01321022  RH  034%=      5-min Rain = 0
KPD2 202359Z 13002KT 13/M02 A3001 RMK A01 T01311022  RH  035%=      5-min Rain = 0
KPD2 210000Z 13002KT 13/M02 A3001 RMK A01 T01301021  RH  035%=      5-min Rain = 0
KPD2 210001Z 13002KT 13/M02 A3001 RMK A01 T01291021  RH  035%=      5-min Rain = 0
KPD2 210002Z 13002KT 13/M02 A3001 RMK A01 T01281021  RH  036%=      5-min Rain = 0
KPD2 210003Z 14002KT 13/M02 A3001 RMK A01 T01261021  RH  036%=      5-min Rain = 0
KPD2 210004Z 14002KT 13/M02 A3001 RMK A01 T01251021  RH  036%=      5-min Rain = 0
KPD2 210005Z 15002KT 12/M02 A3001 RMK A01 T01231021  RH  037%=      5-min Rain = 0
KPD2 210006Z 16002KT 12/M02 A3001 RMK A01 T01221020  RH  037%=      5-min Rain = 0
KPD2 210007Z 15003KT 12/M02 A3001 RMK A01 T01211020  RH  037%=      5-min Rain = 0
KPD2 210008Z 15003KT 12/M02 A3001 RMK A01 T01201020  RH  037%=      5-min Rain = 0
KPD2 210009Z 14002KT 12/M02 A3001 RMK A01 T01191021  RH  038%=      5-min Rain = 0
KPD2 210010Z 14002KT 12/M02 A3001 RMK A01 T01181021  RH  038%=      5-min Rain = 0
KPD2 210011Z 13002KT 12/M02 A3001 RMK A01 T01181021  RH  038%=      5-min Rain = 0
KPD2 210012Z 13002KT 12/M02 A3001 RMK A01 T01171021  RH  038%=      5-min Rain = 0
KPD2 210013Z 13002KT 12/M02 A3001 RMK A01 T01171021  RH  038%=      5-min Rain = 0
KPD2 210014Z 13002KT 12/M02 A3001 RMK A01 T01161021  RH  038%=      5-min Rain = 0
KPD2 210015Z 13003KT 12/M02 A3001 RMK A01 T01161021  RH  038%=      5-min Rain = 0
KPD2 210016Z 13003KT 12/M02 A3001 RMK A01 T01151021  RH  039%=      5-min Rain = 0
KPD2 210017Z 13003KT 11/M02 A3001 RMK A01 T01141021  RH  039%=      5-min Rain = 0
KPD2 210018Z 14002KT 11/M02 A3001 RMK A01 T01141021  RH  039%=      5-min Rain = 0
KPD2 210019Z 14002KT 11/M02 A3001 RMK A01 T01121022  RH  039%=      5-min Rain = 0
KPD2 210020Z 14002KT 11/M02 A30 RMK A01 T01111021  RH  040%=      5-min Rain = 0
KPD2 210021Z 14002KT 11/M02 A3001 RMK A01 T01101021  RH  040%=      5-min Rain = 0
KPD2 210022Z 15002KT 11/M02 A3001 RMK A01 T01101021  RH  040%=      5-min Rain = 0
KPD2 210023Z 17002KT 11/M02 A3001 RMK A01 T01091021  RH  040%=      5-min Rain = 0
KPD2 210024Z 16002KT 11/M02 A3001 RMK A01 T01081020  RH  041%=      5-min Rain = 0
KPD2 210025Z 15003KT 11/M02 A3001 RMK A01 T01081020  RH  041%=      5-min Rain = 0
KPD2 210026Z 14002KT 11/M02 A3001 RMK A01 T01081020  RH  041%=      5-min Rain = 0
KPD2 210027Z 14001KT 11/M02 A3001 RMK A01 T01071020  RH  041%=      5-min Rain = 0
KPD2 210028Z 12001KT 11/M02 A3001 RMK A01 T01061020  RH  041%=      5-min Rain = 0
KPD2 210029Z 10002KT 11/M02 A3001 RMK A01 T01061020  RH  041%=      5-min Rain = 0
KPD2 210030Z 11003KT 11/M02 A30 RMK A01 T01051021  RH  041%=      5-min Rain = 0
KPD2 210031Z 11003KT 10/M02 A30 RMK A01 T01041022  RH  041%=      5-min Rain = 0
KPD2 210032Z 12002KT 10/M02 A30 RMK A01 T01031023  RH  041%=      5-min Rain = 0
KPD2 210033Z 13002KT 10/M02 A3001 RMK A01 T01021023  RH  042%=      5-min Rain = 0
KPD2 210034Z 14001KT 10/M02 A3001 RMK A01 T01011023  RH  042%=      5-min Rain = 0
KPD2 210035Z 13001KT 10/M02 A3001 RMK A01 T01001022  RH  042%=      5-min Rain = 0
KPD2 210036Z 13001KT 10/M02 A30 RMK A01 T01001023  RH  042%=      5-min Rain = 0
KPD2 210037Z 11002KT 10/M02 A30 RMK A01 T01001022  RH  042%=      5-min Rain = 0
KPD2 210038Z 11002KT 10/M02 A30 RMK A01 T00991022  RH  043%=      5-min Rain = 0
KPD2 210039Z 13001KT 10/M02 A3001 RMK A01 T00991022  RH  043%=      5-min Rain = 0
KPD2 210040Z 15003KT 10/M02 A3001 RMK A01 T00991022  RH  043%=      5-min Rain = 0
KPD2 210041Z 14003KT 10/M02 A3001 RMK A01 T00981022  RH  043%=      5-min Rain = 0
KPD2 210042Z 14002KT 10/M02 A30 RMK A01 T00981022  RH  043%=      5-min Rain = 0
KPD2 210043Z 14002KT 10/M02 A30 RMK A01 T00981022  RH  043%=      5-min Rain = 0
KPD2 210044Z 14003KT 10/M02 A30 RMK A01 T00971023  RH  043%=      5-min Rain = 0
KPD2 210045Z 14002KT 10/M02 A30 RMK A01 T00971022  RH  043%=      5-min Rain = 0
KPD2 210046Z 13002KT 10/M02 A30 RMK A01 T00961024  RH  043%=      5-min Rain = 0
KPD2 210047Z 13003KT 10/M02 A30 RMK A01 T00971024  RH  043%=      5-min Rain = 0
KPD2 210048Z 13003KT 10/M03 A30 RMK A01 T00961025  RH  043%=      5-min Rain = 0
KPD2 210049Z 12003KT 10/M03 A30 RMK A01 T00961025  RH  043%=      5-min Rain = 0
KPD2 210050Z 13002KT 10/M03 A30 RMK A01 T00961025  RH  043%=      5-min Rain = 0
KPD2 210051Z 13002KT 10/M03 A30 RMK A01 T00961025  RH  042%=      5-min Rain = 0
KPD2 210052Z 13003KT 10/M03 A30 RMK A01 T00971025  RH  042%=      5-min Rain = 0
KPD2 210053Z 14002KT 10/M03 A3001 RMK A01 T00971025  RH  042%=      5-min Rain = 0
KPD2 210054Z 14001KT 10/M03 A3001 RMK A01 T00951026  RH  043%=      5-min Rain = 0
KPD2 210055Z 14001KT 09/M03 A3001 RMK A01 T00931027  RH  043%=      5-min Rain = 0
KPD2 210056Z 14001KT 09/M03 A3001 RMK A01 T00911026  RH  044%=      5-min Rain = 0
KPD2 210057Z 15001KT 09/M03 A3001 RMK A01 T00911025  RH  044%=      5-min Rain = 0
KPD2 210058Z 14001KT 09/M03 A3001 RMK A01 T00911025  RH  044%=      5-min Rain = 0
KPD2 210059Z 14002KT 09/M03 A3001 RMK A01 T00901025  RH  044%=      5-min Rain = 0
KPD2 210100Z 13001KT 09/M03 A3001 RMK A01 T00901025  RH  044%=      5-min Rain = 0
KPD2 210101Z 12001KT 09/M03 A3001 RMK A01 T00891025  RH  044%=      5-min Rain = 0
KPD2 210102Z 16000KT 09/M03 A3001 RMK A01 T00891025  RH  044%=      5-min Rain = 0
KPD2 210103Z 15001KT 09/M03 A3001 RMK A01 T00891025  RH  045%=      5-min Rain = 0
KPD2 210104Z 14002KT 09/M03 A3001 RMK A01 T00901025  RH  044%=      5-min Rain = 0
KPD2 210105Z 13002KT 09/M03 A3001 RMK A01 T00911025  RH  044%=      5-min Rain = 0
KPD2 210106Z 12001KT 09/M03 A3001 RMK A01 T00911026  RH  044%=      5-min Rain = 0
KPD2 210107Z 10002KT 09/M03 A3001 RMK A01 T00921026  RH  044%=      5-min Rain = 0
KPD2 210108Z 11001KT 09/M03 A3001 RMK A01 T00921026  RH  043%=      5-min Rain = 0
KPD2 210109Z 11002KT 09/M03 A3001 RMK A01 T00921027  RH  043%=      5-min Rain = 0
KPD2 210110Z 12002KT 09/M03 A3001 RMK A01 T00921027  RH  043%=      5-min Rain = 0
KPD2 210111Z 18001KT 09/M03 A30 RMK A01 T00911028  RH  043%=      5-min Rain = 0
KPD2 210112Z 14001KT 09/M03 A30 RMK A01 T00891028  RH  044%=      5-min Rain = 0
KPD2 210113Z 12002KT 09/M03 A30 RMK A01 T00871028  RH  044%=      5-min Rain = 0
KPD2 210114Z 11002KT 09/M03 A30 RMK A01 T00871027  RH  045%=      5-min Rain = 0
KPD2 210115Z 11002KT 09/M03 A30 RMK A01 T00871027  RH  045%=      5-min Rain = 0
KPD2 210116Z 12003KT 09/M03 A30 RMK A01 T00861027  RH  045%=      5-min Rain = 0
KPD2 210117Z 12003KT 09/M03 A30 RMK A01 T00881027  RH  044%=      5-min Rain = 0
KPD2 210118Z 13002KT 09/M03 A30 RMK A01 T00891027  RH  044%=      5-min Rain = 0
KPD2 210119Z 12003KT 09/M03 A30 RMK A01 T00881027  RH  044%=      5-min Rain = 0
KPD2 210120Z 13002KT 09/M03 A30 RMK A01 T00871027  RH  045%=      5-min Rain = 0
KPD2 210121Z 13003KT 09/M03 A30 RMK A01 T00871027  RH  045%=      5-min Rain = 0
KPD2 210122Z 13003KT 09/M03 A30 RMK A01 T00861027  RH  045%=      5-min Rain = 0
KPD2 210123Z 13002KT 09/M03 A30 RMK A01 T00851028  RH  045%=      5-min Rain = 0
KPD2 210124Z 13003KT 09/M03 A30 RMK A01 T00851028  RH  045%=      5-min Rain = 0
KPD2 210125Z 12002KT 09/M03 A30 RMK A01 T00851028  RH  045%=      5-min Rain = 0
KPD2 210126Z 13002KT 09/M03 A30 RMK A01 T00861028  RH  045%=      5-min Rain = 0
KPD2 210127Z 12003KT 09/M03 A30 RMK A01 T00871028  RH  044%=      5-min Rain = 0
KPD2 210128Z 12002KT 09/M03 A30 RMK A01 T00861029  RH  044%=      5-min Rain = 0
KPD2 210129Z 14003KT 09/M03 A30 RMK A01 T00861029  RH  044%=      5-min Rain = 0
KPD2 210130Z 12003KT 08/M03 A30 RMK A01 T00841030  RH  044%=      5-min Rain = 0
KPD2 210131Z 12002KT 08/M03 A30 RMK A01 T00811031  RH  045%=      5-min Rain = 0
KPD2 210132Z 14001KT 08/M03 A30 RMK A01 T00781031  RH  046%=      5-min Rain = 0
KPD2 210133Z 14002KT 08/M03 A30 RMK A01 T00761031  RH  047%=      5-min Rain = 0
KPD2 210134Z 13003KT 08/M03 A30 RMK A01 T00761030  RH  047%=      5-min Rain = 0
KPD2 210135Z 13002KT 08/M03 A30 RMK A01 T00761030  RH  047%=      5-min Rain = 0
KPD2 210136Z 12002KT 08/M03 A30 RMK A01 T00781030  RH  046%=      5-min Rain = 0
KPD2 210137Z 13002KT 08/M03 A30 RMK A01 T00801030  RH  046%=      5-min Rain = 0
KPD2 210138Z 12002KT 08/M03 A30 RMK A01 T00811030  RH  045%=      5-min Rain = 0
KPD2 210139Z 12003KT 08/M03 A30 RMK A01 T00831030  RH  045%=      5-min Rain = 0
KPD2 210140Z 12004KT 09/M03 A30 RMK A01 T00851031  RH  044%=      5-min Rain = 0
KPD2 210141Z 12004KT 09/M03 A30 RMK A01 T00861031  RH  044%=      5-min Rain = 0
KPD2 210142Z 12004KT 09/M03 A30 RMK A01 T00871031  RH  043%=      5-min Rain = 0
KPD2 210143Z 11004KT 09/M03 A30 RMK A01 T00891031  RH  043%=      5-min Rain = 0
KPD2 210144Z 12003KT 09/M03 A30 RMK A01 T00911030  RH  042%=      5-min Rain = 0
KPD2 210145Z 10004KT 09/M03 A30 RMK A01 T00931030  RH  042%=      5-min Rain = 0
KPD2 210146Z 11003KT 09/M03 A30 RMK A01 T00931031  RH  042%=      5-min Rain = 0
KPD2 210147Z 10005KT 09/M03 A30 RMK A01 T00931031  RH  042%=      5-min Rain = 0
KPD2 210148Z 11004KT 10/M03 A30 RMK A01 T00951030  RH  041%=      5-min Rain = 0
KPD2 210149Z 10006KT 10/M03 A30 RMK A01 T00981030  RH  041%=      5-min Rain = 0
KPD2 210150Z 10007KT 10/M03 A30 RMK A01 T01011029  RH  040%=      5-min Rain = 0
KPD2 210151Z 10007KT 11/M03 A30 RMK A01 T01061028  RH  039%=      5-min Rain = 0
KPD2 210152Z 09006KT 11/M03 A30 RMK A01 T01101028  RH  038%=      5-min Rain = 0
KPD2 210153Z 10006KT 11/M03 A30 RMK A01 T01131028  RH  037%=      5-min Rain = 0
KPD2 210154Z 10005KT 12/M03 A30 RMK A01 T01161029  RH  036%=      5-min Rain = 0
KPD2 210155Z 10008KT 12/M03 A30 RMK A01 T01161029  RH  036%=      5-min Rain = 0
KPD2 210156Z 11004KT 12/M03 A30 RMK A01 T01171029  RH  036%=      5-min Rain = 0
KPD2 210157Z 10006KT 12/M03 A30 RMK A01 T01151029  RH  036%=      5-min Rain = 0
KPD2 210158Z 10006KT 11/M03 A30 RMK A01 T01131029  RH  037%=      5-min Rain = 0
KPD2 210159Z 11006KT 11/M03 A30 RMK A01 T01141029  RH  037%=      5-min Rain = 0
KPD2 210200Z 11005KT 11/M03 A30 RMK A01 T01141029  RH  037%=      5-min Rain = 0
KPD2 210201Z 12003KT 11/M03 A30 RMK A01 T01131029  RH  037%=      5-min Rain = 0
KPD2 210202Z 12005KT 11/M03 A30 RMK A01 T01111030  RH  037%=      5-min Rain = 0
KPD2 210203Z 13006KT 11/M03 A30 RMK A01 T01081030  RH  038%=      5-min Rain = 0
KPD2 210204Z 14006KT 11/M03 A30 RMK A01 T01061031  RH  038%=      5-min Rain = 0
KPD2 210205Z 13007KT 10/M03 A30 RMK A01 T01031031  RH  039%=      5-min Rain = 0
KPD2 210206Z 13006KT 10/M03 A30 RMK A01 T01001031  RH  040%=      5-min Rain = 0
KPD2 210207Z 12005KT 10/M03 A30 RMK A01 T00961031  RH  041%=      5-min Rain = 0
KPD2 210208Z 13004KT 09/M03 A30 RMK A01 T00931031  RH  041%=      5-min Rain = 0
KPD2 210209Z 13006KT 09/M03 A30 RMK A01 T00901031  RH  042%=      5-min Rain = 0
KPD2 210210Z 13007KT 09/M03 A30 RMK A01 T00881031  RH  043%=      5-min Rain = 0
KPD2 210211Z 11005KT 09/M03 A30 RMK A01 T00871031  RH  044%=      5-min Rain = 0
KPD2 210212Z 12005KT 09/M03 A30 RMK A01 T00861031  RH  044%=      5-min Rain = 0
KPD2 210213Z 12003KT 09/M03 A30 RMK A01 T00851031  RH  044%=      5-min Rain = 0
KPD2 210214Z 10003KT 08/M03 A30 RMK A01 T00841031  RH  044%=      5-min Rain = 0
KPD2 210215Z 10005KT 08/M03 A30 RMK A01 T00841030  RH  044%=      5-min Rain = 0
KPD2 210216Z 10005KT 09/M03 A30 RMK A01 T00881030  RH  043%=      5-min Rain = 0
KPD2 210217Z 13004KT 09/M03 A30 RMK A01 T00901030  RH  043%=      5-min Rain = 0
KPD2 210218Z 12003KT 09/M03 A2999 RMK A01 T00901030  RH  043%=      5-min Rain = 0
KPD2 210219Z 11005KT 09/M03 A2999 RMK A01 T00891030  RH  043%=      5-min Rain = 0
KPD2 210220Z 13003KT 09/M03 A2999 RMK A01 T00891030  RH  043%=      5-min Rain = 0
KPD2 210221Z 12004KT 09/M03 A2999 RMK A01 T00891030  RH  043%=      5-min Rain = 0
KPD2 210222Z 12004KT 09/M03 A2999 RMK A01 T00891030  RH  043%=      5-min Rain = 0
KPD2 210223Z 12004KT 09/M03 A2999 RMK A01 T00891031  RH  043%=      5-min Rain = 0
KPD2 210224Z 12004KT 09/M03 A2999 RMK A01 T00891031  RH  043%=      5-min Rain = 0
KPD2 210225Z 12003KT 09/M03 A2999 RMK A01 T00891031  RH  043%=      5-min Rain = 0
KPD2 210226Z 13004KT 09/M03 A2999 RMK A01 T00901031  RH  043%=      5-min Rain = 0
KPD2 210227Z 13004KT 09/M03 A2999 RMK A01 T00901031  RH  043%=      5-min Rain = 0
KPD2 210228Z 13004KT 09/M03 A2999 RMK A01 T00901031  RH  043%=      5-min Rain = 0
KPD2 210229Z 14004KT 09/M03 A2999 RMK A01 T00891031  RH  043%=      5-min Rain = 0
KPD2 210230Z 14004KT 09/M03 A2999 RMK A01 T00881030  RH  043%=      5-min Rain = 0
KPD2 210231Z 14003KT 09/M03 A2999 RMK A01 T00871031  RH  043%=      5-min Rain = 0
KPD2 210232Z 15003KT 09/M03 A2999 RMK A01 T00871030  RH  044%=      5-min Rain = 0
KPD2 210233Z 15002KT 09/M03 A2999 RMK A01 T00851030  RH  044%=      5-min Rain = 0
KPD2 210234Z 14002KT 08/M03 A2999 RMK A01 T00841031  RH  044%=      5-min Rain = 0
KPD2 210235Z 15003KT 08/M03 A2999 RMK A01 T00831031  RH  045%=      5-min Rain = 0
KPD2 210236Z 15003KT 08/M03 A2999 RMK A01 T00821031  RH  045%=      5-min Rain = 0
KPD2 210237Z 14002KT 08/M03 A2999 RMK A01 T00801032  RH  045%=      5-min Rain = 0
KPD2 210238Z 15002KT 08/M03 A2999 RMK A01 T00791032  RH  045%=      5-min Rain = 0
KPD2 210239Z 16003KT 08/M03 A2999 RMK A01 T00781032  RH  046%=      5-min Rain = 0
KPD2 210240Z 15002KT 08/M03 A2999 RMK A01 T00771032  RH  046%=      5-min Rain = 0
KPD2 210241Z 15003KT 08/M03 A2999 RMK A01 T00761032  RH  046%=      5-min Rain = 0
KPD2 210242Z 13003KT 08/M03 A2999 RMK A01 T00751033  RH  046%=      5-min Rain = 0
KPD2 210243Z 13002KT 07/M03 A2999 RMK A01 T00741033  RH  047%=      5-min Rain = 0
KPD2 210244Z 14002KT 07/M03 A2999 RMK A01 T00731033  RH  047%=      5-min Rain = 0
KPD2 210245Z 15003KT 07/M03 A2999 RMK A01 T00721033  RH  047%=      5-min Rain = 0
KPD2 210246Z 14004KT 07/M03 A2999 RMK A01 T00721032  RH  048%=      5-min Rain = 0
KPD2 210247Z 13003KT 07/M03 A2999 RMK A01 T00711032  RH  048%=      5-min Rain = 0
KPD2 210248Z 12005KT 07/M03 A2999 RMK A01 T00711033  RH  048%=      5-min Rain = 0
KPD2 210249Z 12005KT 07/M03 A2999 RMK A01 T00711033  RH  048%=      5-min Rain = 0
KPD2 210250Z 12005KT 07/M03 A2999 RMK A01 T00711033  RH  048%=      5-min Rain = 0
KPD2 210251Z 12005KT 07/M03 A2999 RMK A01 T00711033  RH  047%=      5-min Rain = 0
KPD2 210252Z 12004KT 07/M03 A2999 RMK A01 T00721033  RH  047%=      5-min Rain = 0
KPD2 210253Z 13005KT 07/M03 A2999 RMK A01 T00721033  RH  047%=      5-min Rain = 0
KPD2 210254Z 14005KT 07/M03 A2999 RMK A01 T00721033  RH  047%=      5-min Rain = 0
KPD2 210255Z 14006KT 07/M03 A2999 RMK A01 T00721033  RH  047%=      5-min Rain = 0
KPD2 210256Z 12005KT 07/M03 A2999 RMK A01 T00721032  RH  047%=      5-min Rain = 0
KPD2 210257Z 12006KT 07/M03 A2999 RMK A01 T00731033  RH  047%=      5-min Rain = 0
KPD2 210258Z 13006KT 07/M03 A2999 RMK A01 T00731033  RH  047%=      5-min Rain = 0
KPD2 210259Z 12004KT 07/M03 A2999 RMK A01 T00721033  RH  047%=      5-min Rain = 0
KPD2 210300Z 13004KT 07/M03 A2999 RMK A01 T00721033  RH  047%=      5-min Rain = 0
KPD2 210301Z 13006KT 07/M03 A2999 RMK A01 T00721032  RH  047%=      5-min Rain = 0
KPD2 210302Z 13006KT 07/M03 A2999 RMK A01 T00741032  RH  047%=      5-min Rain = 0
KPD2 210303Z 13006KT 08/M03 A2999 RMK A01 T00751032  RH  047%=      5-min Rain = 0
KPD2 210304Z 13007KT 08/M03 A2999 RMK A01 T00761032  RH  046%=      5-min Rain = 0
KPD2 210305Z 13006KT 08/M03 A2999 RMK A01 T00761032  RH  046%=      5-min Rain = 0
KPD2 210306Z 13007KT 08/M03 A2999 RMK A01 T00771032  RH  046%=      5-min Rain = 0
KPD2 210307Z 13008KT 08/M03 A2999 RMK A01 T00771032  RH  046%=      5-min Rain = 0
KPD2 210308Z 13008KT 08/M03 A2999 RMK A01 T00781032  RH  046%=      5-min Rain = 0
KPD2 210309Z 12008KT 08/M03 A2998 RMK A01 T00801032  RH  045%=      5-min Rain = 0
KPD2 210310Z 12007KT 08/M03 A2998 RMK A01 T00811032  RH  045%=      5-min Rain = 0
KPD2 210311Z 12006KT 08/M03 A2998 RMK A01 T00811032  RH  045%=      5-min Rain = 0
KPD2 210312Z 13008KT 08/M03 A2998 RMK A01 T00811033  RH  045%=      5-min Rain = 0
KPD2 210313Z 12007KT 08/M03 A2998 RMK A01 T00801033  RH  045%=      5-min Rain = 0
KPD2 210314Z 12007KT 08/M03 A2998 RMK A01 T00801033  RH  045%=      5-min Rain = 0
KPD2 210315Z 12007KT 08/M03 A2998 RMK A01 T00801033  RH  045%=      5-min Rain = 0
KPD2 210316Z 11009KT 08/M03 A2998 RMK A01 T00801033  RH  044%=      5-min Rain = 0
KPD2 210317Z 11007KT 08/M03 A2998 RMK A01 T00811033  RH  044%=      5-min Rain = 0
KPD2 210318Z 12008KT 08/M03 A2998 RMK A01 T00831033  RH  044%=      5-min Rain = 0
KPD2 210319Z 12007KT 08/M03 A2998 RMK A01 T00841033  RH  044%=      5-min Rain = 0
KPD2 210320Z 13007KT 08/M03 A2998 RMK A01 T00841033  RH  043%=      5-min Rain = 0
KPD2 210321Z 12009KT 08/M03 A2998 RMK A01 T00841033  RH  043%=      5-min Rain = 0
KPD2 210322Z 12010KT 09/M03 A2998 RMK A01 T00851034  RH  043%=      5-min Rain = 0
KPD2 210323Z 12009KT 09/M03 A2998 RMK A01 T00851034  RH  043%=      5-min Rain = 0
KPD2 210324Z 12009KT 09/M03 A2998 RMK A01 T00861034  RH  043%=      5-min Rain = 0
KPD2 210325Z 11008KT 09/M03 A2998 RMK A01 T00861034  RH  043%=      5-min Rain = 0
KPD2 210326Z 12009KT 09/M04 A2998 RMK A01 T00861035  RH  042%=      5-min Rain = 0
KPD2 210327Z 12008KT 09/M04 A2997 RMK A01 T00861035  RH  042%=      5-min Rain = 0
KPD2 210328Z 11006G11KT 09/M04 A2997 RMK A01 T00871035  RH  042%=      5-min Rain = 0
KPD2 210329Z 11009KT 09/M04 A2997 RMK A01 T00871036  RH  042%=      5-min Rain = 0
KPD2 210330Z 12007KT 09/M04 A2997 RMK A01 T00891037  RH  041%=      5-min Rain = 0
KPD2 210331Z 13008KT 09/M04 A2997 RMK A01 T00911037  RH  040%=      5-min Rain = 0
KPD2 210332Z 12009KT 09/M04 A2997 RMK A01 T00911037  RH  040%=      5-min Rain = 0
KPD2 210333Z 12010KT 09/M04 A2997 RMK A01 T00901036  RH  041%=      5-min Rain = 0
KPD2 210334Z 11009KT 09/M04 A2997 RMK A01 T00901036  RH  041%=      5-min Rain = 0
KPD2 210335Z 11009KT 09/M04 A2997 RMK A01 T00891037  RH  041%=      5-min Rain = 0
KPD2 210336Z 11009KT 09/M04 A2997 RMK A01 T00901038  RH  040%=      5-min Rain = 0
KPD2 210337Z 11007KT 09/M04 A2997 RMK A01 T00921038  RH  040%=      5-min Rain = 0
KPD2 210338Z 11005KT 09/M04 A2997 RMK A01 T00921038  RH  040%=      5-min Rain = 0
KPD2 210339Z 11007KT 09/M04 A2997 RMK A01 T00921039  RH  039%=      5-min Rain = 0
KPD2 210340Z 12007KT 09/M04 A2997 RMK A01 T00931041  RH  039%=      5-min Rain = 0
KPD2 210341Z 11007KT 10/M04 A2997 RMK A01 T00951044  RH  037%=      5-min Rain = 0
KPD2 210342Z 11007KT 10/M04 A2997 RMK A01 T00971043  RH  037%=      5-min Rain = 0
KPD2 210343Z 11007KT 10/M04 A2997 RMK A01 T00961043  RH  037%=      5-min Rain = 0
KPD2 210344Z 11006KT 10/M04 A2997 RMK A01 T00961043  RH  037%=      5-min Rain = 0
KPD2 210345Z 10008KT 10/M04 A2997 RMK A01 T00951043  RH  037%=      5-min Rain = 0
KPD2 210346Z 10008KT 10/M05 A2997 RMK A01 T00961045  RH  037%=      5-min Rain = 0
KPD2 210347Z 11008KT 10/M05 A2997 RMK A01 T00971045  RH  036%=      5-min Rain = 0
KPD2 210348Z 10006G14KT 10/M05 A2997 RMK A01 T00971045  RH  036%=      5-min Rain = 0
KPD2 210349Z 10009KT 10/M05 A2997 RMK A01 T00971047  RH  036%=      5-min Rain = 0
KPD2 210350Z 12006KT 10/M05 A2997 RMK A01 T00981047  RH  036%=      5-min Rain = 0
KPD2 210351Z 13008KT 10/M05 A2997 RMK A01 T00981048  RH  035%=      5-min Rain = 0
KPD2 210352Z 12007KT 10/M05 A2997 RMK A01 T00991047  RH  035%=      5-min Rain = 0
KPD2 210353Z 11008KT 10/M05 A2997 RMK A01 T00981047  RH  036%=      5-min Rain = 0
KPD2 210354Z 12008KT 10/M05 A2997 RMK A01 T00971047  RH  036%=      5-min Rain = 0
KPD2 210355Z 11009KT 10/M05 A2997 RMK A01 T00961047  RH  036%=      5-min Rain = 0
KPD2 210356Z 11008KT 10/M05 A2997 RMK A01 T00961049  RH  035%=      5-min Rain = 0
KPD2 210357Z 12009KT 10/M05 A2997 RMK A01 T00981050  RH  035%=      5-min Rain = 0
KPD2 210358Z 12009KT 10/M05 A2997 RMK A01 T00991049  RH  035%=      5-min Rain = 0
KPD2 210359Z 13008KT 10/M05 A2997 RMK A01 T00981048  RH  035%=      5-min Rain = 0
KPD2 210400Z 13009KT 10/M05 A2997 RMK A01 T00981049  RH  035%=      5-min Rain = 0
KPD2 210401Z 12007KT 10/M05 A2997 RMK A01 T00971049  RH  035%=      5-min Rain = 0
KPD2 210402Z 14007KT 10/M05 A2997 RMK A01 T00961049  RH  035%=      5-min Rain = 0
KPD2 210403Z 11009KT 10/M05 A2996 RMK A01 T00961049  RH  036%=      5-min Rain = 0
KPD2 210404Z 14011KT 10/M05 A2997 RMK A01 T00951050  RH  036%=      5-min Rain = 0
KPD2 210405Z 15009KT 10/M05 A2997 RMK A01 T00971052  RH  034%=      5-min Rain = 0
KPD2 210406Z 13009KT 10/M05 A2997 RMK A01 T00991052  RH  034%=      5-min Rain = 0
KPD2 210407Z 14007KT 10/M05 A2996 RMK A01 T00991052  RH  034%=      5-min Rain = 0
KPD2 210408Z 14006KT 10/M05 A2997 RMK A01 T00991051  RH  034%=      5-min Rain = 0
KPD2 210409Z 12007KT 10/M05 A2996 RMK A01 T00971049  RH  035%=      5-min Rain = 0
KPD2 210410Z 13006KT 09/M05 A2996 RMK A01 T00941049  RH  036%=      5-min Rain = 0
KPD2 210411Z 13006KT 09/M05 A2997 RMK A01 T00921049  RH  037%=      5-min Rain = 0
KPD2 210412Z 13007KT 09/M05 A2996 RMK A01 T00901049  RH  037%=      5-min Rain = 0
KPD2 210413Z 12006KT 09/M05 A2997 RMK A01 T00901049  RH  037%=      5-min Rain = 0
KPD2 210414Z 14009KT 09/M05 A2997 RMK A01 T00901050  RH  037%=      5-min Rain = 0
KPD2 210415Z 14008KT 09/M05 A2997 RMK A01 T00921052  RH  036%=      5-min Rain = 0
KPD2 210416Z 13007G12KT 09/M05 A2997 RMK A01 T00931051  RH  036%=      5-min Rain = 0
KPD2 210417Z 13006KT 10/M05 A2997 RMK A01 T00951052  RH  035%=      5-min Rain = 0
KPD2 210418Z 13005KT 10/M05 A2997 RMK A01 T00951051  RH  035%=      5-min Rain = 0
KPD2 210419Z 13006KT 09/M05 A2996 RMK A01 T00941052  RH  035%=      5-min Rain = 0
KPD2 210420Z 13007KT 09/M05 A2996 RMK A01 T00941052  RH  035%=      5-min Rain = 0
KPD2 210421Z 14006KT 09/M05 A2996 RMK A01 T00941052  RH  035%=      5-min Rain = 0
KPD2 210422Z 12007KT 09/M05 A2996 RMK A01 T00941052  RH  035%=      5-min Rain = 0
KPD2 210423Z 14006KT 09/M05 A2996 RMK A01 T00921052  RH  036%=      5-min Rain = 0
KPD2 210424Z 12009KT 09/M05 A2996 RMK A01 T00921052  RH  036%=      5-min Rain = 0
KPD2 210425Z 13007KT 09/M05 A2996 RMK A01 T00911051  RH  036%=      5-min Rain = 0
KPD2 210426Z 13006KT 09/M05 A2996 RMK A01 T00901051  RH  036%=      5-min Rain = 0
KPD2 210427Z 13007KT 09/M05 A2996 RMK A01 T00901051  RH  036%=      5-min Rain = 0
KPD2 210428Z 13007KT 09/M05 A2996 RMK A01 T00901052  RH  036%=      5-min Rain = 0
KPD2 210429Z 14007KT 09/M05 A2996 RMK A01 T00901052  RH  036%=      5-min Rain = 0
KPD2 210430Z 10007KT 09/M05 A2997 RMK A01 T00921053  RH  036%=      5-min Rain = 0
KPD2 210431Z 13005KT 09/M05 A2997 RMK A01 T00931053  RH  035%=      5-min Rain = 0
KPD2 210432Z 11006KT 09/M05 A2997 RMK A01 T00931053  RH  035%=      5-min Rain = 0
KPD2 210433Z 12008KT 09/M05 A2997 RMK A01 T00931053  RH  035%=      5-min Rain = 0
KPD2 210434Z 11007KT 09/M05 A2997 RMK A01 T00931052  RH  035%=      5-min Rain = 0
KPD2 210435Z 12006KT 09/M05 A2997 RMK A01 T00921052  RH  036%=      5-min Rain = 0
KPD2 210436Z 12006KT 09/M05 A2997 RMK A01 T00891052  RH  036%=      5-min Rain = 0
KPD2 210437Z 12006KT 09/M05 A2997 RMK A01 T00871052  RH  037%=      5-min Rain = 0
KPD2 210438Z 11006KT 09/M05 A2997 RMK A01 T00861052  RH  037%=      5-min Rain = 0
KPD2 210439Z 12006KT 09/M05 A2997 RMK A01 T00851052  RH  037%=      5-min Rain = 0
KPD2 210440Z 12005KT 08/M05 A2997 RMK A01 T00841053  RH  037%=      5-min Rain = 0
KPD2 210441Z 11006KT 08/M05 A2997 RMK A01 T00841053  RH  037%=      5-min Rain = 0
KPD2 210442Z 10007KT 08/M05 A2997 RMK A01 T00841053  RH  037%=      5-min Rain = 0
KPD2 210443Z 11006KT 09/M05 A2997 RMK A01 T00851053  RH  037%=      5-min Rain = 0
KPD2 210444Z 11007KT 09/M05 A2997 RMK A01 T00871053  RH  037%=      5-min Rain = 0
KPD2 210445Z 13005KT 09/M05 A2997 RMK A01 T00881054  RH  036%=      5-min Rain = 0
KPD2 210446Z 13006KT 09/M05 A2997 RMK A01 T00891054  RH  036%=      5-min Rain = 0
KPD2 210447Z 11005KT 09/M05 A2997 RMK A01 T00911054  RH  035%=      5-min Rain = 0
KPD2 210448Z 09003KT 09/M05 A2997 RMK A01 T00911054  RH  035%=      5-min Rain = 0
KPD2 210449Z 11005KT 09/M05 A2997 RMK A01 T00901054  RH  036%=      5-min Rain = 0
KPD2 210450Z 11006KT 09/M05 A2997 RMK A01 T00881054  RH  036%=      5-min Rain = 0
KPD2 210451Z 12005KT 09/M06 A2997 RMK A01 T00891055  RH  036%=      5-min Rain = 0
KPD2 210452Z 13004KT 09/M06 A2997 RMK A01 T00901055  RH  035%=      5-min Rain = 0
KPD2 210453Z 15002KT 09/M06 A2997 RMK A01 T00911055  RH  035%=      5-min Rain = 0
KPD2 210454Z 11004KT 09/M06 A2997 RMK A01 T00921055  RH  035%=      5-min Rain = 0
KPD2 210455Z 10006KT 09/M06 A2997 RMK A01 T00921055  RH  035%=      5-min Rain = 0
KPD2 210456Z 10005KT 09/M06 A2997 RMK A01 T00921055  RH  035%=      5-min Rain = 0
KPD2 210457Z 10005KT 09/M06 A2997 RMK A01 T00931055  RH  035%=      5-min Rain = 0
KPD2 210458Z 12004KT 09/M06 A2997 RMK A01 T00921055  RH  035%=      5-min Rain = 0
KPD2 210459Z 10006KT 09/M06 A2997 RMK A01 T00921055  RH  035%=      5-min Rain = 0
KPD2 210500Z 08003KT 09/M06 A2997 RMK A01 T00921055  RH  035%=      5-min Rain = 0
KPD2 210501Z 15003KT 09/M06 A2997 RMK A01 T00921056  RH  035%=      5-min Rain = 0
KPD2 210502Z 15004KT 09/M06 A2997 RMK A01 T00931055  RH  035%=      5-min Rain = 0
KPD2 210503Z 18002KT 10/M06 A2997 RMK A01 T00951056  RH  034%=      5-min Rain = 0
KPD2 210504Z 13003KT 10/M06 A2997 RMK A01 T00971056  RH  034%=      5-min Rain = 0
KPD2 210505Z 13004KT 10/M06 A2997 RMK A01 T00971056  RH  034%=      5-min Rain = 0
KPD2 210506Z 11004KT 10/M06 A2997 RMK A01 T00971056  RH  034%=      5-min Rain = 0
KPD2 210507Z 10005KT 10/M06 A2997 RMK A01 T00971056  RH  034%=      5-min Rain = 0
KPD2 210508Z 10005KT 10/M06 A2997 RMK A01 T00961056  RH  034%=      5-min Rain = 0
KPD2 210509Z 09005KT 09/M06 A2996 RMK A01 T00941056  RH  034%=      5-min Rain = 0
KPD2 210510Z 12002KT 09/M06 A2997 RMK A01 T00931056  RH  034%=      5-min Rain = 0
KPD2 210511Z 11003KT 09/M06 A2997 RMK A01 T00921056  RH  035%=      5-min Rain = 0
KPD2 210512Z 15003KT 09/M06 A2997 RMK A01 T00911056  RH  035%=      5-min Rain = 0
KPD2 210513Z 13004KT 09/M06 A2997 RMK A01 T00901056  RH  035%=      5-min Rain = 0
KPD2 210514Z 11005KT 09/M06 A2997 RMK A01 T00911056  RH  035%=      5-min Rain = 0
KPD2 210515Z 10004KT 09/M06 A2996 RMK A01 T00911056  RH  035%=      5-min Rain = 0
KPD2 210516Z 10004KT 09/M06 A2996 RMK A01 T00901056  RH  035%=      5-min Rain = 0
KPD2 210517Z 11005KT 09/M06 A2996 RMK A01 T00901056  RH  035%=      5-min Rain = 0
KPD2 210518Z 09005KT 09/M06 A2996 RMK A01 T00901055  RH  035%=      5-min Rain = 0
KPD2 210519Z 10004KT 09/M06 A2996 RMK A01 T00891055  RH  036%=      5-min Rain = 0
KPD2 210520Z 14004KT 09/M06 A2996 RMK A01 T00891055  RH  036%=      5-min Rain = 0
KPD2 210521Z 14003KT 09/M06 A2996 RMK A01 T00891056  RH  035%=      5-min Rain = 0
KPD2 210522Z 12004KT 09/M06 A2996 RMK A01 T00911056  RH  035%=      5-min Rain = 0
KPD2 210523Z 15004KT 09/M06 A2996 RMK A01 T00921055  RH  035%=      5-min Rain = 0
KPD2 210524Z 18006G11KT 09/M06 A2996 RMK A01 T00921055  RH  035%=      5-min Rain = 0
KPD2 210525Z 24007KT 10/M05 A2996 RMK A01 T00951054  RH  034%=      5-min Rain = 0
KPD2 210526Z 13006KT 10/M05 A2996 RMK A01 T00981054  RH  034%=      5-min Rain = 0
KPD2 210527Z 09005KT 10/M05 A2996 RMK A01 T00971054  RH  034%=      5-min Rain = 0
KPD2 210528Z 09003KT 10/M05 A2996 RMK A01 T00961054  RH  034%=      5-min Rain = 0
KPD2 210529Z 14004KT 10/M05 A2996 RMK A01 T00961054  RH  034%=      5-min Rain = 0
KPD2 210530Z 14005KT 10/M06 A2996 RMK A01 T00951055  RH  034%=      5-min Rain = 0
KPD2 210531Z 10006KT 09/M06 A2996 RMK A01 T00931055  RH  035%=      5-min Rain = 0
KPD2 210532Z 18003KT 09/M06 A2996 RMK A01 T00901056  RH  035%=      5-min Rain = 0
KPD2 210533Z 17001KT 09/M06 A2996 RMK A01 T00881055  RH  036%=      5-min Rain = 0
KPD2 210534Z 19005KT 09/M06 A2996 RMK A01 T00871055  RH  036%=      5-min Rain = 0
KPD2 210535Z 27002G7KT 09/M05 A2996 RMK A01 T00891054  RH  036%=      5-min Rain = 0
KPD2 210536Z 12000KT 09/M05 A2996 RMK A01 T00921054  RH  035%=      5-min Rain = 0
KPD2 210537Z 16002KT 09/M05 A2996 RMK A01 T00931054  RH  035%=      5-min Rain = 0
KPD2 210538Z 17003KT 09/M05 A2996 RMK A01 T00921054  RH  035%=      5-min Rain = 0
KPD2 210539Z 18004KT 09/M06 A2996 RMK A01 T00921055  RH  035%=      5-min Rain = 0
KPD2 210540Z 13003KT 09/M06 A2996 RMK A01 T00921055  RH  035%=      5-min Rain = 0
KPD2 210541Z 11004KT 09/M06 A2996 RMK A01 T00901055  RH  035%=      5-min Rain = 0
KPD2 210542Z 16001KT 09/M06 A2996 RMK A01 T00881055  RH  036%=      5-min Rain = 0
KPD2 210543Z 12002KT 09/M06 A2996 RMK A01 T00861055  RH  036%=      5-min Rain = 0
KPD2 210544Z 17003KT 09/M06 A2996 RMK A01 T00851055  RH  037%=      5-min Rain = 0
KPD2 210545Z 15004KT 08/M06 A2996 RMK A01 T00831055  RH  037%=      5-min Rain = 0
KPD2 210546Z 19004KT 08/M06 A2996 RMK A01 T00821055  RH  037%=      5-min Rain = 0
KPD2 210547Z 19005KT 08/M05 A2996 RMK A01 T00831054  RH  038%=      5-min Rain = 0
KPD2 210548Z 20004KT 09/M05 A2996 RMK A01 T00851053  RH  037%=      5-min Rain = 0
KPD2 210549Z 18005KT 09/M05 A2996 RMK A01 T00881053  RH  036%=      5-min Rain = 0
KPD2 210550Z 20002KT 09/M05 A2997 RMK A01 T00901053  RH  036%=      5-min Rain = 0
KPD2 210551Z 16000KT 09/M05 A2997 RMK A01 T00921053  RH  035%=      5-min Rain = 0
KPD2 210552Z 26002KT 09/M05 A2997 RMK A01 T00921053  RH  035%=      5-min Rain = 0
KPD2 210553Z 19003KT 09/M05 A2997 RMK A01 T00911053  RH  036%=      5-min Rain = 0
KPD2 210554Z 28001KT 09/M05 A2997 RMK A01 T00901053  RH  036%=      5-min Rain = 0
KPD2 210555Z 23002KT 09/M05 A2997 RMK A01 T00891054  RH  036%=      5-min Rain = 0
KPD2 210556Z 09002KT 09/M05 A2997 RMK A01 T00891053  RH  036%=      5-min Rain = 0
KPD2 210557Z 31003KT 09/M05 A2997 RMK A01 T00891053  RH  036%=      5-min Rain = 0
KPD2 210558Z 26007KT 09/M05 A2996 RMK A01 T00891053  RH  036%=      5-min Rain = 0
KPD2 210559Z 18004KT 09/M05 A2996 RMK A01 T00911052  RH  036%=      5-min Rain = 0

Page generated in 0.0379 seconds.